<?xml version="1.0" encoding="UTF-8" standalone="no" ?>
<gpx xmlns="http://www.topografix.com/GPX/1/1" xmlns:xsi="http://www.w3.org/2001/XMLSchema-instance" xsi:schemaLocation="http://www.topografix.com/GPX/1/1 http://www.topografix.com/GPX/1/1/gpx.xsd" version="1.1" creator="VisuGPX - https://www.visugpx.com">
  <metadata>
    <name>rieumes </name>
    <desc><![CDATA[parcours vtt michael
]]></desc>
  </metadata>
  <trk>
    <name><![CDATA[Rieumes 2008]]></name>
    <trkseg>
      <trkpt lat="43.40582" lon="1.09677">
        <ele>294.867493</ele>
        <time>2008-09-21T08:13:33Z</time>
      </trkpt>
      <trkpt lat="43.40583" lon="1.09673">
        <ele>294.829987</ele>
        <time>2008-09-21T08:13:44Z</time>
      </trkpt>
      <trkpt lat="43.40589" lon="1.09664">
        <ele>294.432495</ele>
        <time>2008-09-21T08:13:49Z</time>
      </trkpt>
      <trkpt lat="43.40625" lon="1.09626">
        <ele>291.649994</ele>
        <time>2008-09-21T08:14:15Z</time>
      </trkpt>
      <trkpt lat="43.40655" lon="1.0963">
        <ele>288.974457</ele>
        <time>2008-09-21T08:14:23Z</time>
      </trkpt>
      <trkpt lat="43.40683" lon="1.09627">
        <ele>286.791199</ele>
        <time>2008-09-21T08:14:29Z</time>
      </trkpt>
      <trkpt lat="43.40744" lon="1.09613">
        <ele>281.696259</ele>
        <time>2008-09-21T08:14:42Z</time>
      </trkpt>
      <trkpt lat="43.40755" lon="1.09601">
        <ele>280.038757</ele>
        <time>2008-09-21T08:14:45Z</time>
      </trkpt>
      <trkpt lat="43.40757" lon="1.09581">
        <ele>279.269867</ele>
        <time>2008-09-21T08:14:50Z</time>
      </trkpt>
      <trkpt lat="43.4078" lon="1.0958">
        <ele>276.872589</ele>
        <time>2008-09-21T08:14:56Z</time>
      </trkpt>
      <trkpt lat="43.40784" lon="1.09579">
        <ele>276.473175</ele>
        <time>2008-09-21T08:14:57Z</time>
      </trkpt>
      <trkpt lat="43.40799" lon="1.09581">
        <ele>274.862488</ele>
        <time>2008-09-21T08:15:03Z</time>
      </trkpt>
      <trkpt lat="43.40819" lon="1.09594">
        <ele>272.659393</ele>
        <time>2008-09-21T08:15:09Z</time>
      </trkpt>
      <trkpt lat="43.4084" lon="1.09609">
        <ele>271.214111</ele>
        <time>2008-09-21T08:15:15Z</time>
      </trkpt>
      <trkpt lat="43.40849" lon="1.09623">
        <ele>271.475067</ele>
        <time>2008-09-21T08:15:20Z</time>
      </trkpt>
      <trkpt lat="43.40849" lon="1.09641">
        <ele>271.3797</ele>
        <time>2008-09-21T08:15:26Z</time>
      </trkpt>
      <trkpt lat="43.40843" lon="1.09665">
        <ele>271.509216</ele>
        <time>2008-09-21T08:15:34Z</time>
      </trkpt>
      <trkpt lat="43.4084" lon="1.09708">
        <ele>272.680145</ele>
        <time>2008-09-21T08:15:45Z</time>
      </trkpt>
      <trkpt lat="43.40842" lon="1.09723">
        <ele>273.174561</ele>
        <time>2008-09-21T08:15:48Z</time>
      </trkpt>
      <trkpt lat="43.40855" lon="1.09739">
        <ele>272.838196</ele>
        <time>2008-09-21T08:15:53Z</time>
      </trkpt>
      <trkpt lat="43.40857" lon="1.09745">
        <ele>272.895752</ele>
        <time>2008-09-21T08:15:56Z</time>
      </trkpt>
      <trkpt lat="43.40854" lon="1.09747">
        <ele>273.143585</ele>
        <time>2008-09-21T08:16:00Z</time>
      </trkpt>
      <trkpt lat="43.40855" lon="1.09755">
        <ele>273.364502</ele>
        <time>2008-09-21T08:16:04Z</time>
      </trkpt>
      <trkpt lat="43.40864" lon="1.09771">
        <ele>272.812225</ele>
        <time>2008-09-21T08:16:10Z</time>
      </trkpt>
      <trkpt lat="43.40893" lon="1.09811">
        <ele>272.231232</ele>
        <time>2008-09-21T08:16:21Z</time>
      </trkpt>
      <trkpt lat="43.40893" lon="1.09819">
        <ele>272.447876</ele>
        <time>2008-09-21T08:16:23Z</time>
      </trkpt>
      <trkpt lat="43.40891" lon="1.09828">
        <ele>272.874878</ele>
        <time>2008-09-21T08:16:25Z</time>
      </trkpt>
      <trkpt lat="43.40893" lon="1.09843">
        <ele>273.684387</ele>
        <time>2008-09-21T08:16:28Z</time>
      </trkpt>
      <trkpt lat="43.40883" lon="1.09867">
        <ele>276.513123</ele>
        <time>2008-09-21T08:16:36Z</time>
      </trkpt>
      <trkpt lat="43.40879" lon="1.09899">
        <ele>279.451569</ele>
        <time>2008-09-21T08:16:46Z</time>
      </trkpt>
      <trkpt lat="43.40868" lon="1.09943">
        <ele>283.520874</ele>
        <time>2008-09-21T08:17:02Z</time>
      </trkpt>
      <trkpt lat="43.40861" lon="1.09991">
        <ele>286.311096</ele>
        <time>2008-09-21T08:17:15Z</time>
      </trkpt>
      <trkpt lat="43.40858" lon="1.10008">
        <ele>287.06427</ele>
        <time>2008-09-21T08:17:19Z</time>
      </trkpt>
      <trkpt lat="43.40853" lon="1.10042">
        <ele>288.045624</ele>
        <time>2008-09-21T08:17:27Z</time>
      </trkpt>
      <trkpt lat="43.40849" lon="1.10068">
        <ele>288.550629</ele>
        <time>2008-09-21T08:17:34Z</time>
      </trkpt>
      <trkpt lat="43.40856" lon="1.10077">
        <ele>288.55188</ele>
        <time>2008-09-21T08:17:38Z</time>
      </trkpt>
      <trkpt lat="43.40895" lon="1.1011">
        <ele>288.135681</ele>
        <time>2008-09-21T08:17:53Z</time>
      </trkpt>
      <trkpt lat="43.40934" lon="1.10156">
        <ele>287.707336</ele>
        <time>2008-09-21T08:18:07Z</time>
      </trkpt>
      <trkpt lat="43.4097" lon="1.10208">
        <ele>285.45047</ele>
        <time>2008-09-21T08:18:18Z</time>
      </trkpt>
      <trkpt lat="43.41038" lon="1.10323">
        <ele>282.548767</ele>
        <time>2008-09-21T08:18:38Z</time>
      </trkpt>
      <trkpt lat="43.41067" lon="1.10399">
        <ele>281.307281</ele>
        <time>2008-09-21T08:18:49Z</time>
      </trkpt>
      <trkpt lat="43.41088" lon="1.10421">
        <ele>281.029022</ele>
        <time>2008-09-21T08:18:57Z</time>
      </trkpt>
      <trkpt lat="43.41114" lon="1.10447">
        <ele>282.01239</ele>
        <time>2008-09-21T08:19:06Z</time>
      </trkpt>
      <trkpt lat="43.41175" lon="1.10496">
        <ele>281.992889</ele>
        <time>2008-09-21T08:19:24Z</time>
      </trkpt>
      <trkpt lat="43.41181" lon="1.10506">
        <ele>281.998962</ele>
        <time>2008-09-21T08:19:26Z</time>
      </trkpt>
      <trkpt lat="43.41186" lon="1.10518">
        <ele>282.083923</ele>
        <time>2008-09-21T08:19:28Z</time>
      </trkpt>
      <trkpt lat="43.41223" lon="1.10632">
        <ele>282.863159</ele>
        <time>2008-09-21T08:19:48Z</time>
      </trkpt>
      <trkpt lat="43.41256" lon="1.10762">
        <ele>282.658966</ele>
        <time>2008-09-21T08:20:08Z</time>
      </trkpt>
      <trkpt lat="43.41276" lon="1.10909">
        <ele>277.654388</ele>
        <time>2008-09-21T08:20:27Z</time>
      </trkpt>
      <trkpt lat="43.41281" lon="1.10936">
        <ele>276.798126</ele>
        <time>2008-09-21T08:20:30Z</time>
      </trkpt>
      <trkpt lat="43.41294" lon="1.10953">
        <ele>277.276184</ele>
        <time>2008-09-21T08:20:33Z</time>
      </trkpt>
      <trkpt lat="43.41336" lon="1.10987">
        <ele>276.364532</ele>
        <time>2008-09-21T08:20:44Z</time>
      </trkpt>
      <trkpt lat="43.41345" lon="1.11014">
        <ele>276.283752</ele>
        <time>2008-09-21T08:20:49Z</time>
      </trkpt>
      <trkpt lat="43.41361" lon="1.11127">
        <ele>276.440186</ele>
        <time>2008-09-21T08:21:03Z</time>
      </trkpt>
      <trkpt lat="43.41385" lon="1.11223">
        <ele>276.198822</ele>
        <time>2008-09-21T08:21:17Z</time>
      </trkpt>
      <trkpt lat="43.41402" lon="1.11333">
        <ele>275.69812</ele>
        <time>2008-09-21T08:21:33Z</time>
      </trkpt>
      <trkpt lat="43.41405" lon="1.11418">
        <ele>274.401154</ele>
        <time>2008-09-21T08:21:45Z</time>
      </trkpt>
      <trkpt lat="43.41399" lon="1.11484">
        <ele>272.861237</ele>
        <time>2008-09-21T08:21:52Z</time>
      </trkpt>
      <trkpt lat="43.41385" lon="1.11519">
        <ele>273.556244</ele>
        <time>2008-09-21T08:21:56Z</time>
      </trkpt>
      <trkpt lat="43.41357" lon="1.11667">
        <ele>276.67749</ele>
        <time>2008-09-21T08:22:13Z</time>
      </trkpt>
      <trkpt lat="43.41359" lon="1.11725">
        <ele>277.56189</ele>
        <time>2008-09-21T08:22:21Z</time>
      </trkpt>
      <trkpt lat="43.41358" lon="1.11758">
        <ele>277.832336</ele>
        <time>2008-09-21T08:22:26Z</time>
      </trkpt>
      <trkpt lat="43.41368" lon="1.11799">
        <ele>277.679993</ele>
        <time>2008-09-21T08:22:32Z</time>
      </trkpt>
      <trkpt lat="43.41383" lon="1.11817">
        <ele>277.347504</ele>
        <time>2008-09-21T08:22:36Z</time>
      </trkpt>
      <trkpt lat="43.41497" lon="1.11859">
        <ele>272.409363</ele>
        <time>2008-09-21T08:22:53Z</time>
      </trkpt>
      <trkpt lat="43.41619" lon="1.11929">
        <ele>259.547272</ele>
        <time>2008-09-21T08:23:06Z</time>
      </trkpt>
      <trkpt lat="43.41638" lon="1.11942">
        <ele>256.86203</ele>
        <time>2008-09-21T08:23:08Z</time>
      </trkpt>
      <trkpt lat="43.41655" lon="1.12004">
        <ele>254.099518</ele>
        <time>2008-09-21T08:23:13Z</time>
      </trkpt>
      <trkpt lat="43.41652" lon="1.12016">
        <ele>254.159042</ele>
        <time>2008-09-21T08:23:14Z</time>
      </trkpt>
      <trkpt lat="43.41638" lon="1.12066">
        <ele>254.136475</ele>
        <time>2008-09-21T08:23:18Z</time>
      </trkpt>
      <trkpt lat="43.41625" lon="1.12099">
        <ele>254.11528</ele>
        <time>2008-09-21T08:23:21Z</time>
      </trkpt>
      <trkpt lat="43.41615" lon="1.12122">
        <ele>254.165253</ele>
        <time>2008-09-21T08:23:26Z</time>
      </trkpt>
      <trkpt lat="43.41594" lon="1.12182">
        <ele>254.377762</ele>
        <time>2008-09-21T08:23:36Z</time>
      </trkpt>
      <trkpt lat="43.41538" lon="1.12334">
        <ele>253.538757</ele>
        <time>2008-09-21T08:23:56Z</time>
      </trkpt>
      <trkpt lat="43.41497" lon="1.12433">
        <ele>253.585632</ele>
        <time>2008-09-21T08:24:07Z</time>
      </trkpt>
      <trkpt lat="43.41456" lon="1.12525">
        <ele>254.789993</ele>
        <time>2008-09-21T08:24:18Z</time>
      </trkpt>
      <trkpt lat="43.41428" lon="1.12589">
        <ele>254.670624</ele>
        <time>2008-09-21T08:24:27Z</time>
      </trkpt>
      <trkpt lat="43.41441" lon="1.12629">
        <ele>253.601669</ele>
        <time>2008-09-21T08:24:32Z</time>
      </trkpt>
      <trkpt lat="43.41464" lon="1.12657">
        <ele>252.781555</ele>
        <time>2008-09-21T08:24:36Z</time>
      </trkpt>
      <trkpt lat="43.41589" lon="1.12732">
        <ele>248.76062</ele>
        <time>2008-09-21T08:24:54Z</time>
      </trkpt>
      <trkpt lat="43.41646" lon="1.12759">
        <ele>246.588882</ele>
        <time>2008-09-21T08:25:02Z</time>
      </trkpt>
      <trkpt lat="43.41665" lon="1.12805">
        <ele>244.508118</ele>
        <time>2008-09-21T08:25:08Z</time>
      </trkpt>
      <trkpt lat="43.41682" lon="1.12813">
        <ele>243.264374</ele>
        <time>2008-09-21T08:25:11Z</time>
      </trkpt>
      <trkpt lat="43.41736" lon="1.12812">
        <ele>239.394379</ele>
        <time>2008-09-21T08:25:19Z</time>
      </trkpt>
      <trkpt lat="43.41777" lon="1.12824">
        <ele>236.33696</ele>
        <time>2008-09-21T08:25:33Z</time>
      </trkpt>
      <trkpt lat="43.41797" lon="1.12831">
        <ele>236.636597</ele>
        <time>2008-09-21T08:25:44Z</time>
      </trkpt>
      <trkpt lat="43.41805" lon="1.12834">
        <ele>236.800156</ele>
        <time>2008-09-21T08:25:46Z</time>
      </trkpt>
      <trkpt lat="43.41819" lon="1.12837">
        <ele>237.067505</ele>
        <time>2008-09-21T08:25:49Z</time>
      </trkpt>
      <trkpt lat="43.41829" lon="1.12841">
        <ele>237.244995</ele>
        <time>2008-09-21T08:25:51Z</time>
      </trkpt>
      <trkpt lat="43.41882" lon="1.12857">
        <ele>238.123123</ele>
        <time>2008-09-21T08:26:02Z</time>
      </trkpt>
      <trkpt lat="43.41939" lon="1.12873">
        <ele>238.347504</ele>
        <time>2008-09-21T08:26:18Z</time>
      </trkpt>
      <trkpt lat="43.42003" lon="1.12886">
        <ele>238.100937</ele>
        <time>2008-09-21T08:26:34Z</time>
      </trkpt>
      <trkpt lat="43.42069" lon="1.12888">
        <ele>238</ele>
        <time>2008-09-21T08:26:49Z</time>
      </trkpt>
      <trkpt lat="43.4213" lon="1.12889">
        <ele>238</ele>
        <time>2008-09-21T08:27:00Z</time>
      </trkpt>
      <trkpt lat="43.42154" lon="1.12888">
        <ele>238</ele>
        <time>2008-09-21T08:27:09Z</time>
      </trkpt>
      <trkpt lat="43.4216" lon="1.1289">
        <ele>238</ele>
        <time>2008-09-21T08:27:27Z</time>
      </trkpt>
      <trkpt lat="43.4219" lon="1.12894">
        <ele>238.802933</ele>
        <time>2008-09-21T08:27:40Z</time>
      </trkpt>
      <trkpt lat="43.42241" lon="1.12897">
        <ele>241.651855</ele>
        <time>2008-09-21T08:27:58Z</time>
      </trkpt>
      <trkpt lat="43.4229" lon="1.12893">
        <ele>244.228119</ele>
        <time>2008-09-21T08:28:18Z</time>
      </trkpt>
      <trkpt lat="43.42328" lon="1.12844">
        <ele>245.869995</ele>
        <time>2008-09-21T08:28:34Z</time>
      </trkpt>
      <trkpt lat="43.42333" lon="1.12836">
        <ele>246.080002</ele>
        <time>2008-09-21T08:28:38Z</time>
      </trkpt>
      <trkpt lat="43.42331" lon="1.12834">
        <ele>246.009995</ele>
        <time>2008-09-21T08:28:40Z</time>
      </trkpt>
      <trkpt lat="43.42325" lon="1.12816">
        <ele>245.58313</ele>
        <time>2008-09-21T08:28:46Z</time>
      </trkpt>
      <trkpt lat="43.42318" lon="1.12763">
        <ele>244.426559</ele>
        <time>2008-09-21T08:28:56Z</time>
      </trkpt>
      <trkpt lat="43.42318" lon="1.12733">
        <ele>244.073639</ele>
        <time>2008-09-21T08:29:01Z</time>
      </trkpt>
      <trkpt lat="43.42356" lon="1.12579">
        <ele>246.337494</ele>
        <time>2008-09-21T08:29:27Z</time>
      </trkpt>
      <trkpt lat="43.42379" lon="1.12567">
        <ele>247.803085</ele>
        <time>2008-09-21T08:29:34Z</time>
      </trkpt>
      <trkpt lat="43.42435" lon="1.1259">
        <ele>252.317047</ele>
        <time>2008-09-21T08:29:55Z</time>
      </trkpt>
      <trkpt lat="43.42484" lon="1.12614">
        <ele>256.551819</ele>
        <time>2008-09-21T08:30:16Z</time>
      </trkpt>
      <trkpt lat="43.42521" lon="1.1263">
        <ele>259.40683</ele>
        <time>2008-09-21T08:30:35Z</time>
      </trkpt>
      <trkpt lat="43.42557" lon="1.12641">
        <ele>261.898193</ele>
        <time>2008-09-21T08:30:52Z</time>
      </trkpt>
      <trkpt lat="43.42597" lon="1.12662">
        <ele>264.211365</ele>
        <time>2008-09-21T08:31:09Z</time>
      </trkpt>
      <trkpt lat="43.42627" lon="1.12676">
        <ele>266.303131</ele>
        <time>2008-09-21T08:31:22Z</time>
      </trkpt>
      <trkpt lat="43.42672" lon="1.12697">
        <ele>268.096252</ele>
        <time>2008-09-21T08:31:40Z</time>
      </trkpt>
      <trkpt lat="43.42719" lon="1.12719">
        <ele>268.734375</ele>
        <time>2008-09-21T08:31:56Z</time>
      </trkpt>
      <trkpt lat="43.42776" lon="1.12741">
        <ele>267.628113</ele>
        <time>2008-09-21T08:32:15Z</time>
      </trkpt>
      <trkpt lat="43.42844" lon="1.12764">
        <ele>264.575623</ele>
        <time>2008-09-21T08:32:31Z</time>
      </trkpt>
      <trkpt lat="43.42934" lon="1.12775">
        <ele>261.429993</ele>
        <time>2008-09-21T08:32:43Z</time>
      </trkpt>
      <trkpt lat="43.42961" lon="1.12771">
        <ele>262.893433</ele>
        <time>2008-09-21T08:32:49Z</time>
      </trkpt>
      <trkpt lat="43.43008" lon="1.12759">
        <ele>265.149292</ele>
        <time>2008-09-21T08:33:03Z</time>
      </trkpt>
      <trkpt lat="43.4306" lon="1.12747">
        <ele>265.274536</ele>
        <time>2008-09-21T08:33:21Z</time>
      </trkpt>
      <trkpt lat="43.43173" lon="1.12749">
        <ele>257.236084</ele>
        <time>2008-09-21T08:33:42Z</time>
      </trkpt>
      <trkpt lat="43.43176" lon="1.1275">
        <ele>257.300476</ele>
        <time>2008-09-21T08:33:43Z</time>
      </trkpt>
      <trkpt lat="43.43189" lon="1.12796">
        <ele>257.104675</ele>
        <time>2008-09-21T08:33:53Z</time>
      </trkpt>
      <trkpt lat="43.43185" lon="1.12815">
        <ele>256.79425</ele>
        <time>2008-09-21T08:34:03Z</time>
      </trkpt>
      <trkpt lat="43.4319" lon="1.12824">
        <ele>256.530914</ele>
        <time>2008-09-21T08:34:26Z</time>
      </trkpt>
      <trkpt lat="43.43196" lon="1.12837">
        <ele>256.119202</ele>
        <time>2008-09-21T08:34:29Z</time>
      </trkpt>
      <trkpt lat="43.43222" lon="1.12934">
        <ele>252.896881</ele>
        <time>2008-09-21T08:34:42Z</time>
      </trkpt>
      <trkpt lat="43.43225" lon="1.12949">
        <ele>252.476257</ele>
        <time>2008-09-21T08:34:44Z</time>
      </trkpt>
      <trkpt lat="43.43266" lon="1.12975">
        <ele>254.848755</ele>
        <time>2008-09-21T08:35:07Z</time>
      </trkpt>
      <trkpt lat="43.43308" lon="1.12972">
        <ele>258.460632</ele>
        <time>2008-09-21T08:35:27Z</time>
      </trkpt>
      <trkpt lat="43.43347" lon="1.12974">
        <ele>260.627502</ele>
        <time>2008-09-21T08:35:47Z</time>
      </trkpt>
      <trkpt lat="43.434" lon="1.12974">
        <ele>259.10672</ele>
        <time>2008-09-21T08:36:02Z</time>
      </trkpt>
      <trkpt lat="43.43505" lon="1.12966">
        <ele>253.449997</ele>
        <time>2008-09-21T08:36:19Z</time>
      </trkpt>
      <trkpt lat="43.43597" lon="1.12962">
        <ele>254.871826</ele>
        <time>2008-09-21T08:36:35Z</time>
      </trkpt>
      <trkpt lat="43.43632" lon="1.12959">
        <ele>255.770981</ele>
        <time>2008-09-21T08:36:44Z</time>
      </trkpt>
      <trkpt lat="43.43676" lon="1.12956">
        <ele>255.102036</ele>
        <time>2008-09-21T08:36:53Z</time>
      </trkpt>
      <trkpt lat="43.43781" lon="1.1291">
        <ele>253.628036</ele>
        <time>2008-09-21T08:37:11Z</time>
      </trkpt>
      <trkpt lat="43.43855" lon="1.12878">
        <ele>252.819351</ele>
        <time>2008-09-21T08:37:23Z</time>
      </trkpt>
      <trkpt lat="43.43953" lon="1.12845">
        <ele>250.088074</ele>
        <time>2008-09-21T08:37:40Z</time>
      </trkpt>
      <trkpt lat="43.44048" lon="1.12784">
        <ele>248.386459</ele>
        <time>2008-09-21T08:37:56Z</time>
      </trkpt>
      <trkpt lat="43.44096" lon="1.1275">
        <ele>247.651581</ele>
        <time>2008-09-21T08:38:05Z</time>
      </trkpt>
      <trkpt lat="43.44149" lon="1.12747">
        <ele>251.218124</ele>
        <time>2008-09-21T08:38:21Z</time>
      </trkpt>
      <trkpt lat="43.44193" lon="1.12746">
        <ele>255.435562</ele>
        <time>2008-09-21T08:38:39Z</time>
      </trkpt>
      <trkpt lat="43.44237" lon="1.12746">
        <ele>259.547333</ele>
        <time>2008-09-21T08:39:01Z</time>
      </trkpt>
      <trkpt lat="43.44272" lon="1.12742">
        <ele>261.22757</ele>
        <time>2008-09-21T08:39:18Z</time>
      </trkpt>
      <trkpt lat="43.44301" lon="1.12739">
        <ele>262.46106</ele>
        <time>2008-09-21T08:39:30Z</time>
      </trkpt>
      <trkpt lat="43.44311" lon="1.12694">
        <ele>266.213928</ele>
        <time>2008-09-21T08:39:47Z</time>
      </trkpt>
      <trkpt lat="43.44336" lon="1.12674">
        <ele>268.930634</ele>
        <time>2008-09-21T08:40:01Z</time>
      </trkpt>
      <trkpt lat="43.44378" lon="1.1267">
        <ele>269.96109</ele>
        <time>2008-09-21T08:40:13Z</time>
      </trkpt>
      <trkpt lat="43.44385" lon="1.1267">
        <ele>269.916901</ele>
        <time>2008-09-21T08:40:15Z</time>
      </trkpt>
      <trkpt lat="43.44391" lon="1.1265">
        <ele>270.797668</ele>
        <time>2008-09-21T08:40:21Z</time>
      </trkpt>
      <trkpt lat="43.44396" lon="1.12626">
        <ele>271.267548</ele>
        <time>2008-09-21T08:40:27Z</time>
      </trkpt>
      <trkpt lat="43.44417" lon="1.12626">
        <ele>271.027344</ele>
        <time>2008-09-21T08:40:33Z</time>
      </trkpt>
      <trkpt lat="43.44444" lon="1.12639">
        <ele>270.017517</ele>
        <time>2008-09-21T08:40:39Z</time>
      </trkpt>
      <trkpt lat="43.44514" lon="1.12704">
        <ele>267.452087</ele>
        <time>2008-09-21T08:40:52Z</time>
      </trkpt>
      <trkpt lat="43.44594" lon="1.1278">
        <ele>264.728119</ele>
        <time>2008-09-21T08:41:06Z</time>
      </trkpt>
      <trkpt lat="43.44691" lon="1.12856">
        <ele>263.075165</ele>
        <time>2008-09-21T08:41:22Z</time>
      </trkpt>
      <trkpt lat="43.44787" lon="1.12945">
        <ele>262.533752</ele>
        <time>2008-09-21T08:41:38Z</time>
      </trkpt>
      <trkpt lat="43.44854" lon="1.13012">
        <ele>261.413971</ele>
        <time>2008-09-21T08:41:51Z</time>
      </trkpt>
      <trkpt lat="43.44953" lon="1.13092">
        <ele>259.255371</ele>
        <time>2008-09-21T08:42:10Z</time>
      </trkpt>
      <trkpt lat="43.45008" lon="1.13136">
        <ele>257.159393</ele>
        <time>2008-09-21T08:42:20Z</time>
      </trkpt>
      <trkpt lat="43.45066" lon="1.13176">
        <ele>255.911957</ele>
        <time>2008-09-21T08:42:30Z</time>
      </trkpt>
      <trkpt lat="43.45083" lon="1.13195">
        <ele>255.483047</ele>
        <time>2008-09-21T08:42:33Z</time>
      </trkpt>
      <trkpt lat="43.45165" lon="1.13298">
        <ele>251.789032</ele>
        <time>2008-09-21T08:42:50Z</time>
      </trkpt>
      <trkpt lat="43.45264" lon="1.13396">
        <ele>251.09375</ele>
        <time>2008-09-21T08:43:08Z</time>
      </trkpt>
      <trkpt lat="43.45307" lon="1.13429">
        <ele>250.270432</ele>
        <time>2008-09-21T08:43:15Z</time>
      </trkpt>
      <trkpt lat="43.45353" lon="1.13461">
        <ele>249.061874</ele>
        <time>2008-09-21T08:43:24Z</time>
      </trkpt>
      <trkpt lat="43.45372" lon="1.13466">
        <ele>248.485123</ele>
        <time>2008-09-21T08:43:29Z</time>
      </trkpt>
      <trkpt lat="43.45406" lon="1.13458">
        <ele>245.84668</ele>
        <time>2008-09-21T08:43:37Z</time>
      </trkpt>
      <trkpt lat="43.45491" lon="1.13458">
        <ele>240.148148</ele>
        <time>2008-09-21T08:43:49Z</time>
      </trkpt>
      <trkpt lat="43.455" lon="1.1346">
        <ele>239.71463</ele>
        <time>2008-09-21T08:43:50Z</time>
      </trkpt>
      <trkpt lat="43.45538" lon="1.13449">
        <ele>238.34465</ele>
        <time>2008-09-21T08:43:55Z</time>
      </trkpt>
      <trkpt lat="43.45587" lon="1.13404">
        <ele>238.912033</ele>
        <time>2008-09-21T08:44:06Z</time>
      </trkpt>
      <trkpt lat="43.45613" lon="1.13415">
        <ele>239.013748</ele>
        <time>2008-09-21T08:44:14Z</time>
      </trkpt>
      <trkpt lat="43.4563" lon="1.13416">
        <ele>239.324997</ele>
        <time>2008-09-21T08:44:18Z</time>
      </trkpt>
      <trkpt lat="43.45662" lon="1.13424">
        <ele>239.778748</ele>
        <time>2008-09-21T08:44:26Z</time>
      </trkpt>
      <trkpt lat="43.45686" lon="1.13438">
        <ele>239.720627</ele>
        <time>2008-09-21T08:44:32Z</time>
      </trkpt>
      <trkpt lat="43.45768" lon="1.13503">
        <ele>238.813019</ele>
        <time>2008-09-21T08:44:51Z</time>
      </trkpt>
      <trkpt lat="43.45844" lon="1.13584">
        <ele>235.449997</ele>
        <time>2008-09-21T08:45:08Z</time>
      </trkpt>
      <trkpt lat="43.45849" lon="1.13588">
        <ele>235.262497</ele>
        <time>2008-09-21T08:45:09Z</time>
      </trkpt>
      <trkpt lat="43.45955" lon="1.13636">
        <ele>234.206253</ele>
        <time>2008-09-21T08:45:28Z</time>
      </trkpt>
      <trkpt lat="43.46062" lon="1.1366">
        <ele>230.824448</ele>
        <time>2008-09-21T08:45:45Z</time>
      </trkpt>
      <trkpt lat="43.46078" lon="1.13659">
        <ele>230.381393</ele>
        <time>2008-09-21T08:45:48Z</time>
      </trkpt>
      <trkpt lat="43.46096" lon="1.13652">
        <ele>229.922501</ele>
        <time>2008-09-21T08:45:52Z</time>
      </trkpt>
      <trkpt lat="43.46161" lon="1.13641">
        <ele>228.76149</ele>
        <time>2008-09-21T08:46:20Z</time>
      </trkpt>
      <trkpt lat="43.46181" lon="1.13644">
        <ele>228.605133</ele>
        <time>2008-09-21T08:46:33Z</time>
      </trkpt>
      <trkpt lat="43.46242" lon="1.13676">
        <ele>231.493103</ele>
        <time>2008-09-21T08:46:51Z</time>
      </trkpt>
      <trkpt lat="43.46304" lon="1.13728">
        <ele>236.056961</ele>
        <time>2008-09-21T08:47:14Z</time>
      </trkpt>
      <trkpt lat="43.46355" lon="1.13773">
        <ele>237.315475</ele>
        <time>2008-09-21T08:47:34Z</time>
      </trkpt>
      <trkpt lat="43.46412" lon="1.13801">
        <ele>238.315628</ele>
        <time>2008-09-21T08:47:52Z</time>
      </trkpt>
      <trkpt lat="43.4647" lon="1.13813">
        <ele>237.130356</ele>
        <time>2008-09-21T08:48:06Z</time>
      </trkpt>
      <trkpt lat="43.46476" lon="1.13787">
        <ele>237.965897</ele>
        <time>2008-09-21T08:48:16Z</time>
      </trkpt>
      <trkpt lat="43.46467" lon="1.13743">
        <ele>240.727127</ele>
        <time>2008-09-21T08:48:27Z</time>
      </trkpt>
      <trkpt lat="43.46456" lon="1.13692">
        <ele>243.528748</ele>
        <time>2008-09-21T08:48:40Z</time>
      </trkpt>
      <trkpt lat="43.46448" lon="1.13642">
        <ele>245.994858</ele>
        <time>2008-09-21T08:48:52Z</time>
      </trkpt>
      <trkpt lat="43.46444" lon="1.13553">
        <ele>250.091721</ele>
        <time>2008-09-21T08:49:14Z</time>
      </trkpt>
      <trkpt lat="43.46468" lon="1.13486">
        <ele>251.808533</ele>
        <time>2008-09-21T08:49:31Z</time>
      </trkpt>
      <trkpt lat="43.46485" lon="1.13441">
        <ele>253.355759</ele>
        <time>2008-09-21T08:49:42Z</time>
      </trkpt>
      <trkpt lat="43.46496" lon="1.13408">
        <ele>255.330124</ele>
        <time>2008-09-21T08:49:50Z</time>
      </trkpt>
      <trkpt lat="43.4652" lon="1.13325">
        <ele>259.011932</ele>
        <time>2008-09-21T08:50:10Z</time>
      </trkpt>
      <trkpt lat="43.46557" lon="1.13205">
        <ele>260.735107</ele>
        <time>2008-09-21T08:50:35Z</time>
      </trkpt>
      <trkpt lat="43.46591" lon="1.13102">
        <ele>261.796417</ele>
        <time>2008-09-21T08:50:55Z</time>
      </trkpt>
      <trkpt lat="43.46628" lon="1.13017">
        <ele>262.348755</ele>
        <time>2008-09-21T08:51:13Z</time>
      </trkpt>
      <trkpt lat="43.46646" lon="1.1296">
        <ele>262.343781</ele>
        <time>2008-09-21T08:51:23Z</time>
      </trkpt>
      <trkpt lat="43.46648" lon="1.12949">
        <ele>262.23172</ele>
        <time>2008-09-21T08:51:25Z</time>
      </trkpt>
      <trkpt lat="43.46662" lon="1.12949">
        <ele>262.079437</ele>
        <time>2008-09-21T08:51:29Z</time>
      </trkpt>
      <trkpt lat="43.46687" lon="1.12957">
        <ele>261.360962</ele>
        <time>2008-09-21T08:51:34Z</time>
      </trkpt>
      <trkpt lat="43.46697" lon="1.12963">
        <ele>260.943939</ele>
        <time>2008-09-21T08:51:36Z</time>
      </trkpt>
      <trkpt lat="43.46721" lon="1.12973">
        <ele>259.943756</ele>
        <time>2008-09-21T08:51:40Z</time>
      </trkpt>
      <trkpt lat="43.46806" lon="1.13005">
        <ele>263.079987</ele>
        <time>2008-09-21T08:52:01Z</time>
      </trkpt>
      <trkpt lat="43.46857" lon="1.13003">
        <ele>265</ele>
        <time>2008-09-21T08:52:20Z</time>
      </trkpt>
      <trkpt lat="43.46911" lon="1.13007">
        <ele>264.244995</ele>
        <time>2008-09-21T08:52:36Z</time>
      </trkpt>
      <trkpt lat="43.46991" lon="1.13039">
        <ele>258.463806</ele>
        <time>2008-09-21T08:52:51Z</time>
      </trkpt>
      <trkpt lat="43.47103" lon="1.13091">
        <ele>248.452499</ele>
        <time>2008-09-21T08:53:06Z</time>
      </trkpt>
      <trkpt lat="43.47198" lon="1.13133">
        <ele>242.069229</ele>
        <time>2008-09-21T08:53:17Z</time>
      </trkpt>
      <trkpt lat="43.4724" lon="1.13133">
        <ele>239.374374</ele>
        <time>2008-09-21T08:53:22Z</time>
      </trkpt>
      <trkpt lat="43.47349" lon="1.13185">
        <ele>230.324799</ele>
        <time>2008-09-21T08:53:36Z</time>
      </trkpt>
      <trkpt lat="43.47356" lon="1.13191">
        <ele>230.051086</ele>
        <time>2008-09-21T08:53:37Z</time>
      </trkpt>
      <trkpt lat="43.47372" lon="1.13209">
        <ele>229.440735</ele>
        <time>2008-09-21T08:53:40Z</time>
      </trkpt>
      <trkpt lat="43.47406" lon="1.1325">
        <ele>229.322495</ele>
        <time>2008-09-21T08:53:49Z</time>
      </trkpt>
      <trkpt lat="43.47437" lon="1.13272">
        <ele>230.009995</ele>
        <time>2008-09-21T08:54:00Z</time>
      </trkpt>
      <trkpt lat="43.4749" lon="1.13261">
        <ele>232.585007</ele>
        <time>2008-09-21T08:54:16Z</time>
      </trkpt>
      <trkpt lat="43.47529" lon="1.13259">
        <ele>235.172501</ele>
        <time>2008-09-21T08:54:28Z</time>
      </trkpt>
      <trkpt lat="43.47533" lon="1.13313">
        <ele>235.582001</ele>
        <time>2008-09-21T08:54:42Z</time>
      </trkpt>
      <trkpt lat="43.47547" lon="1.13356">
        <ele>237.508759</ele>
        <time>2008-09-21T08:54:56Z</time>
      </trkpt>
      <trkpt lat="43.47589" lon="1.13388">
        <ele>243.102554</ele>
        <time>2008-09-21T08:55:15Z</time>
      </trkpt>
      <trkpt lat="43.47628" lon="1.13417">
        <ele>248.730408</ele>
        <time>2008-09-21T08:55:36Z</time>
      </trkpt>
      <trkpt lat="43.4766" lon="1.1344">
        <ele>253.978516</ele>
        <time>2008-09-21T08:55:54Z</time>
      </trkpt>
      <trkpt lat="43.477" lon="1.13468">
        <ele>259.261261</ele>
        <time>2008-09-21T08:56:18Z</time>
      </trkpt>
      <trkpt lat="43.4773" lon="1.13488">
        <ele>260.787018</ele>
        <time>2008-09-21T08:56:37Z</time>
      </trkpt>
      <trkpt lat="43.4777" lon="1.13503">
        <ele>261.355011</ele>
        <time>2008-09-21T08:57:00Z</time>
      </trkpt>
      <trkpt lat="43.47809" lon="1.13524">
        <ele>262.214996</ele>
        <time>2008-09-21T08:57:18Z</time>
      </trkpt>
      <trkpt lat="43.47858" lon="1.13567">
        <ele>263.279633</ele>
        <time>2008-09-21T08:57:35Z</time>
      </trkpt>
      <trkpt lat="43.47945" lon="1.1362">
        <ele>263.813416</ele>
        <time>2008-09-21T08:57:52Z</time>
      </trkpt>
      <trkpt lat="43.48036" lon="1.13665">
        <ele>260.485199</ele>
        <time>2008-09-21T08:58:06Z</time>
      </trkpt>
      <trkpt lat="43.48139" lon="1.13718">
        <ele>259.848022</ele>
        <time>2008-09-21T08:58:19Z</time>
      </trkpt>
      <trkpt lat="43.4819" lon="1.13745">
        <ele>262.952393</ele>
        <time>2008-09-21T08:58:30Z</time>
      </trkpt>
      <trkpt lat="43.48235" lon="1.13765">
        <ele>264.63501</ele>
        <time>2008-09-21T08:58:41Z</time>
      </trkpt>
      <trkpt lat="43.48298" lon="1.13789">
        <ele>265</ele>
        <time>2008-09-21T08:58:56Z</time>
      </trkpt>
      <trkpt lat="43.48356" lon="1.13816">
        <ele>264.682495</ele>
        <time>2008-09-21T08:59:09Z</time>
      </trkpt>
      <trkpt lat="43.48405" lon="1.1386">
        <ele>263.600006</ele>
        <time>2008-09-21T08:59:23Z</time>
      </trkpt>
      <trkpt lat="43.48407" lon="1.13862">
        <ele>263.549988</ele>
        <time>2008-09-21T08:59:24Z</time>
      </trkpt>
      <trkpt lat="43.4841" lon="1.13859">
        <ele>263.487488</ele>
        <time>2008-09-21T08:59:32Z</time>
      </trkpt>
      <trkpt lat="43.4841" lon="1.13859">
        <ele>263.484985</ele>
        <time>2008-09-21T08:59:45Z</time>
      </trkpt>
      <trkpt lat="43.4841" lon="1.1386">
        <ele>263.482513</ele>
        <time>2008-09-21T08:59:59Z</time>
      </trkpt>
      <trkpt lat="43.4841" lon="1.1386">
        <ele>263.492493</ele>
        <time>2008-09-21T09:00:15Z</time>
      </trkpt>
      <trkpt lat="43.4841" lon="1.1386">
        <ele>263.492493</ele>
        <time>2008-09-21T09:00:24Z</time>
      </trkpt>
      <trkpt lat="43.4841" lon="1.1386">
        <ele>263.48999</ele>
        <time>2008-09-21T09:00:32Z</time>
      </trkpt>
      <trkpt lat="43.4841" lon="1.13861">
        <ele>263.487488</ele>
        <time>2008-09-21T09:00:39Z</time>
      </trkpt>
      <trkpt lat="43.4841" lon="1.13861">
        <ele>263.48999</ele>
        <time>2008-09-21T09:00:53Z</time>
      </trkpt>
      <trkpt lat="43.48411" lon="1.13857">
        <ele>263.464996</ele>
        <time>2008-09-21T09:01:08Z</time>
      </trkpt>
      <trkpt lat="43.48414" lon="1.13832">
        <ele>263.380005</ele>
        <time>2008-09-21T09:01:13Z</time>
      </trkpt>
      <trkpt lat="43.48424" lon="1.13766">
        <ele>263.708435</ele>
        <time>2008-09-21T09:01:24Z</time>
      </trkpt>
      <trkpt lat="43.48443" lon="1.13634">
        <ele>264</ele>
        <time>2008-09-21T09:01:43Z</time>
      </trkpt>
      <trkpt lat="43.48448" lon="1.13474">
        <ele>264.537506</ele>
        <time>2008-09-21T09:02:04Z</time>
      </trkpt>
      <trkpt lat="43.48449" lon="1.13459">
        <ele>264.515015</ele>
        <time>2008-09-21T09:02:06Z</time>
      </trkpt>
      <trkpt lat="43.48474" lon="1.13421">
        <ele>264</ele>
        <time>2008-09-21T09:02:13Z</time>
      </trkpt>
      <trkpt lat="43.48541" lon="1.13388">
        <ele>263.44751</ele>
        <time>2008-09-21T09:02:25Z</time>
      </trkpt>
      <trkpt lat="43.48535" lon="1.13347">
        <ele>263.577515</ele>
        <time>2008-09-21T09:02:31Z</time>
      </trkpt>
      <trkpt lat="43.48534" lon="1.1334">
        <ele>263.607513</ele>
        <time>2008-09-21T09:02:32Z</time>
      </trkpt>
      <trkpt lat="43.48514" lon="1.13244">
        <ele>264.106201</ele>
        <time>2008-09-21T09:02:46Z</time>
      </trkpt>
      <trkpt lat="43.48499" lon="1.13219">
        <ele>264.674286</ele>
        <time>2008-09-21T09:02:51Z</time>
      </trkpt>
      <trkpt lat="43.48422" lon="1.13144">
        <ele>266.0336</ele>
        <time>2008-09-21T09:03:09Z</time>
      </trkpt>
      <trkpt lat="43.48352" lon="1.13124">
        <ele>267</ele>
        <time>2008-09-21T09:03:22Z</time>
      </trkpt>
      <trkpt lat="43.48342" lon="1.13121">
        <ele>267</ele>
        <time>2008-09-21T09:03:24Z</time>
      </trkpt>
      <trkpt lat="43.48302" lon="1.13111">
        <ele>267</ele>
        <time>2008-09-21T09:03:32Z</time>
      </trkpt>
      <trkpt lat="43.48282" lon="1.13104">
        <ele>267</ele>
        <time>2008-09-21T09:03:37Z</time>
      </trkpt>
      <trkpt lat="43.4827" lon="1.13096">
        <ele>267</ele>
        <time>2008-09-21T09:03:40Z</time>
      </trkpt>
      <trkpt lat="43.4823" lon="1.13029">
        <ele>267</ele>
        <time>2008-09-21T09:03:54Z</time>
      </trkpt>
      <trkpt lat="43.48219" lon="1.13008">
        <ele>267.02063</ele>
        <time>2008-09-21T09:03:58Z</time>
      </trkpt>
      <trkpt lat="43.48169" lon="1.12948">
        <ele>267.997498</ele>
        <time>2008-09-21T09:04:12Z</time>
      </trkpt>
      <trkpt lat="43.48123" lon="1.12879">
        <ele>269.272491</ele>
        <time>2008-09-21T09:04:28Z</time>
      </trkpt>
      <trkpt lat="43.4812" lon="1.12875">
        <ele>269.412506</ele>
        <time>2008-09-21T09:04:29Z</time>
      </trkpt>
      <trkpt lat="43.48087" lon="1.12816">
        <ele>271.171265</ele>
        <time>2008-09-21T09:04:41Z</time>
      </trkpt>
      <trkpt lat="43.48057" lon="1.12761">
        <ele>272.005463</ele>
        <time>2008-09-21T09:04:52Z</time>
      </trkpt>
      <trkpt lat="43.47996" lon="1.12726">
        <ele>272.39328</ele>
        <time>2008-09-21T09:05:06Z</time>
      </trkpt>
      <trkpt lat="43.47965" lon="1.12709">
        <ele>272</ele>
        <time>2008-09-21T09:05:13Z</time>
      </trkpt>
      <trkpt lat="43.47907" lon="1.1268">
        <ele>271.426849</ele>
        <time>2008-09-21T09:05:25Z</time>
      </trkpt>
      <trkpt lat="43.47902" lon="1.12662">
        <ele>271.158813</ele>
        <time>2008-09-21T09:05:29Z</time>
      </trkpt>
      <trkpt lat="43.47913" lon="1.12585">
        <ele>269.380615</ele>
        <time>2008-09-21T09:05:40Z</time>
      </trkpt>
      <trkpt lat="43.47911" lon="1.12544">
        <ele>265.838684</ele>
        <time>2008-09-21T09:05:44Z</time>
      </trkpt>
      <trkpt lat="43.47888" lon="1.12338">
        <ele>263.745636</ele>
        <time>2008-09-21T09:06:08Z</time>
      </trkpt>
      <trkpt lat="43.47882" lon="1.12289">
        <ele>265.112122</ele>
        <time>2008-09-21T09:06:22Z</time>
      </trkpt>
      <trkpt lat="43.47867" lon="1.12183">
        <ele>259.627502</ele>
        <time>2008-09-21T09:06:37Z</time>
      </trkpt>
      <trkpt lat="43.47854" lon="1.11999">
        <ele>247.803604</ele>
        <time>2008-09-21T09:06:53Z</time>
      </trkpt>
      <trkpt lat="43.47854" lon="1.11866">
        <ele>244.947495</ele>
        <time>2008-09-21T09:07:04Z</time>
      </trkpt>
      <trkpt lat="43.47849" lon="1.11772">
        <ele>243.064148</ele>
        <time>2008-09-21T09:07:12Z</time>
      </trkpt>
      <trkpt lat="43.47844" lon="1.11694">
        <ele>242.182495</ele>
        <time>2008-09-21T09:07:19Z</time>
      </trkpt>
      <trkpt lat="43.47834" lon="1.11548">
        <ele>240.565002</ele>
        <time>2008-09-21T09:07:36Z</time>
      </trkpt>
      <trkpt lat="43.4783" lon="1.11508">
        <ele>239.938126</ele>
        <time>2008-09-21T09:07:43Z</time>
      </trkpt>
      <trkpt lat="43.47786" lon="1.11496">
        <ele>239.07579</ele>
        <time>2008-09-21T09:07:57Z</time>
      </trkpt>
      <trkpt lat="43.47739" lon="1.11477">
        <ele>241.475479</ele>
        <time>2008-09-21T09:08:13Z</time>
      </trkpt>
      <trkpt lat="43.47703" lon="1.11465">
        <ele>245.593948</ele>
        <time>2008-09-21T09:08:27Z</time>
      </trkpt>
      <trkpt lat="43.47658" lon="1.11441">
        <ele>251.246246</ele>
        <time>2008-09-21T09:08:49Z</time>
      </trkpt>
      <trkpt lat="43.47637" lon="1.11398">
        <ele>255.418701</ele>
        <time>2008-09-21T09:09:10Z</time>
      </trkpt>
      <trkpt lat="43.47655" lon="1.11342">
        <ele>257.967346</ele>
        <time>2008-09-21T09:09:29Z</time>
      </trkpt>
      <trkpt lat="43.47647" lon="1.11276">
        <ele>263.385345</ele>
        <time>2008-09-21T09:09:48Z</time>
      </trkpt>
      <trkpt lat="43.47624" lon="1.11219">
        <ele>268.271881</ele>
        <time>2008-09-21T09:10:07Z</time>
      </trkpt>
      <trkpt lat="43.47608" lon="1.1115">
        <ele>271.986237</ele>
        <time>2008-09-21T09:10:29Z</time>
      </trkpt>
      <trkpt lat="43.47596" lon="1.11089">
        <ele>274.110352</ele>
        <time>2008-09-21T09:10:48Z</time>
      </trkpt>
      <trkpt lat="43.47581" lon="1.11021">
        <ele>275.849091</ele>
        <time>2008-09-21T09:11:07Z</time>
      </trkpt>
      <trkpt lat="43.47574" lon="1.11001">
        <ele>276.710205</ele>
        <time>2008-09-21T09:11:13Z</time>
      </trkpt>
      <trkpt lat="43.47564" lon="1.10974">
        <ele>278.063019</ele>
        <time>2008-09-21T09:11:21Z</time>
      </trkpt>
      <trkpt lat="43.47563" lon="1.10971">
        <ele>278.221252</ele>
        <time>2008-09-21T09:11:22Z</time>
      </trkpt>
      <trkpt lat="43.47557" lon="1.10956">
        <ele>279.122803</ele>
        <time>2008-09-21T09:11:27Z</time>
      </trkpt>
      <trkpt lat="43.4755" lon="1.10937">
        <ele>280.249725</ele>
        <time>2008-09-21T09:11:33Z</time>
      </trkpt>
      <trkpt lat="43.47547" lon="1.1093">
        <ele>280.646484</ele>
        <time>2008-09-21T09:11:35Z</time>
      </trkpt>
      <trkpt lat="43.47545" lon="1.10923">
        <ele>281.055054</ele>
        <time>2008-09-21T09:11:37Z</time>
      </trkpt>
      <trkpt lat="43.47537" lon="1.10904">
        <ele>281.916687</ele>
        <time>2008-09-21T09:11:43Z</time>
      </trkpt>
      <trkpt lat="43.47525" lon="1.10879">
        <ele>283.259918</ele>
        <time>2008-09-21T09:11:51Z</time>
      </trkpt>
      <trkpt lat="43.47497" lon="1.10839">
        <ele>285.844849</ele>
        <time>2008-09-21T09:12:06Z</time>
      </trkpt>
      <trkpt lat="43.47456" lon="1.10793">
        <ele>288.622498</ele>
        <time>2008-09-21T09:12:25Z</time>
      </trkpt>
      <trkpt lat="43.47419" lon="1.10746">
        <ele>291.762512</ele>
        <time>2008-09-21T09:12:44Z</time>
      </trkpt>
      <trkpt lat="43.47384" lon="1.10684">
        <ele>299.221741</ele>
        <time>2008-09-21T09:13:06Z</time>
      </trkpt>
      <trkpt lat="43.47354" lon="1.10627">
        <ele>303.777496</ele>
        <time>2008-09-21T09:13:27Z</time>
      </trkpt>
      <trkpt lat="43.47332" lon="1.10585">
        <ele>306.583588</ele>
        <time>2008-09-21T09:13:41Z</time>
      </trkpt>
      <trkpt lat="43.473" lon="1.10526">
        <ele>309.308594</ele>
        <time>2008-09-21T09:14:02Z</time>
      </trkpt>
      <trkpt lat="43.47271" lon="1.10466">
        <ele>311.5271</ele>
        <time>2008-09-21T09:14:22Z</time>
      </trkpt>
      <trkpt lat="43.47256" lon="1.10423">
        <ele>312.388306</ele>
        <time>2008-09-21T09:14:35Z</time>
      </trkpt>
      <trkpt lat="43.47253" lon="1.10417">
        <ele>312.549408</ele>
        <time>2008-09-21T09:14:37Z</time>
      </trkpt>
      <trkpt lat="43.47249" lon="1.10405">
        <ele>312.811401</ele>
        <time>2008-09-21T09:14:41Z</time>
      </trkpt>
      <trkpt lat="43.47246" lon="1.10396">
        <ele>312.997131</ele>
        <time>2008-09-21T09:14:44Z</time>
      </trkpt>
      <trkpt lat="43.47235" lon="1.10345">
        <ele>313.252502</ele>
        <time>2008-09-21T09:14:58Z</time>
      </trkpt>
      <trkpt lat="43.47234" lon="1.10341">
        <ele>313.230011</ele>
        <time>2008-09-21T09:14:59Z</time>
      </trkpt>
      <trkpt lat="43.4722" lon="1.10255">
        <ele>312.853088</ele>
        <time>2008-09-21T09:15:15Z</time>
      </trkpt>
      <trkpt lat="43.47213" lon="1.10223">
        <ele>312.698761</ele>
        <time>2008-09-21T09:15:20Z</time>
      </trkpt>
      <trkpt lat="43.47209" lon="1.10127">
        <ele>313</ele>
        <time>2008-09-21T09:15:36Z</time>
      </trkpt>
      <trkpt lat="43.47211" lon="1.10097">
        <ele>313</ele>
        <time>2008-09-21T09:15:42Z</time>
      </trkpt>
      <trkpt lat="43.47195" lon="1.1008">
        <ele>313</ele>
        <time>2008-09-21T09:15:48Z</time>
      </trkpt>
      <trkpt lat="43.47155" lon="1.10087">
        <ele>312.40683</ele>
        <time>2008-09-21T09:15:58Z</time>
      </trkpt>
      <trkpt lat="43.47112" lon="1.10097">
        <ele>310.045258</ele>
        <time>2008-09-21T09:16:08Z</time>
      </trkpt>
      <trkpt lat="43.47071" lon="1.10105">
        <ele>306.019989</ele>
        <time>2008-09-21T09:16:15Z</time>
      </trkpt>
      <trkpt lat="43.47053" lon="1.10106">
        <ele>303.559998</ele>
        <time>2008-09-21T09:16:18Z</time>
      </trkpt>
      <trkpt lat="43.46937" lon="1.10134">
        <ele>285.934387</ele>
        <time>2008-09-21T09:16:37Z</time>
      </trkpt>
      <trkpt lat="43.46858" lon="1.1015">
        <ele>277.712067</ele>
        <time>2008-09-21T09:16:47Z</time>
      </trkpt>
      <trkpt lat="43.46802" lon="1.10162">
        <ele>273.749786</ele>
        <time>2008-09-21T09:16:59Z</time>
      </trkpt>
      <trkpt lat="43.46736" lon="1.1017">
        <ele>269.184235</ele>
        <time>2008-09-21T09:17:15Z</time>
      </trkpt>
      <trkpt lat="43.46694" lon="1.10175">
        <ele>266.235626</ele>
        <time>2008-09-21T09:17:25Z</time>
      </trkpt>
      <trkpt lat="43.4669" lon="1.10176">
        <ele>265.945007</ele>
        <time>2008-09-21T09:17:26Z</time>
      </trkpt>
      <trkpt lat="43.46682" lon="1.10179">
        <ele>265.318756</ele>
        <time>2008-09-21T09:17:34Z</time>
      </trkpt>
      <trkpt lat="43.46681" lon="1.10182">
        <ele>265.206238</ele>
        <time>2008-09-21T09:17:46Z</time>
      </trkpt>
      <trkpt lat="43.46674" lon="1.1019">
        <ele>264.408112</ele>
        <time>2008-09-21T09:18:01Z</time>
      </trkpt>
      <trkpt lat="43.46666" lon="1.10198">
        <ele>263.545624</ele>
        <time>2008-09-21T09:18:16Z</time>
      </trkpt>
      <trkpt lat="43.46654" lon="1.10197">
        <ele>262.503754</ele>
        <time>2008-09-21T09:18:22Z</time>
      </trkpt>
      <trkpt lat="43.46647" lon="1.10231">
        <ele>261.569641</ele>
        <time>2008-09-21T09:18:33Z</time>
      </trkpt>
      <trkpt lat="43.46647" lon="1.10239">
        <ele>261.519897</ele>
        <time>2008-09-21T09:18:35Z</time>
      </trkpt>
      <trkpt lat="43.4663" lon="1.10259">
        <ele>261.779999</ele>
        <time>2008-09-21T09:18:44Z</time>
      </trkpt>
      <trkpt lat="43.46618" lon="1.10275">
        <ele>262.919495</ele>
        <time>2008-09-21T09:18:53Z</time>
      </trkpt>
      <trkpt lat="43.466" lon="1.10305">
        <ele>265.430267</ele>
        <time>2008-09-21T09:19:15Z</time>
      </trkpt>
      <trkpt lat="43.46582" lon="1.10314">
        <ele>268.245239</ele>
        <time>2008-09-21T09:19:35Z</time>
      </trkpt>
      <trkpt lat="43.46562" lon="1.10312">
        <ele>270.978699</ele>
        <time>2008-09-21T09:19:40Z</time>
      </trkpt>
      <trkpt lat="43.46541" lon="1.10313">
        <ele>273.649994</ele>
        <time>2008-09-21T09:19:56Z</time>
      </trkpt>
      <trkpt lat="43.46521" lon="1.10343">
        <ele>277.634491</ele>
        <time>2008-09-21T09:20:20Z</time>
      </trkpt>
      <trkpt lat="43.46497" lon="1.10355">
        <ele>281.184601</ele>
        <time>2008-09-21T09:20:35Z</time>
      </trkpt>
      <trkpt lat="43.46484" lon="1.10367">
        <ele>283.395142</ele>
        <time>2008-09-21T09:20:46Z</time>
      </trkpt>
      <trkpt lat="43.46457" lon="1.10392">
        <ele>288.163605</ele>
        <time>2008-09-21T09:21:04Z</time>
      </trkpt>
      <trkpt lat="43.46424" lon="1.10417">
        <ele>290.348755</ele>
        <time>2008-09-21T09:21:22Z</time>
      </trkpt>
      <trkpt lat="43.46394" lon="1.10436">
        <ele>291.324585</ele>
        <time>2008-09-21T09:21:37Z</time>
      </trkpt>
      <trkpt lat="43.46382" lon="1.10449">
        <ele>291.674438</ele>
        <time>2008-09-21T09:21:44Z</time>
      </trkpt>
      <trkpt lat="43.46382" lon="1.10472">
        <ele>291.435181</ele>
        <time>2008-09-21T09:21:50Z</time>
      </trkpt>
      <trkpt lat="43.46379" lon="1.10478">
        <ele>291.432068</ele>
        <time>2008-09-21T09:21:59Z</time>
      </trkpt>
      <trkpt lat="43.46378" lon="1.10479">
        <ele>291.423218</ele>
        <time>2008-09-21T09:22:19Z</time>
      </trkpt>
      <trkpt lat="43.46365" lon="1.10487">
        <ele>291.37439</ele>
        <time>2008-09-21T09:22:47Z</time>
      </trkpt>
      <trkpt lat="43.46317" lon="1.10525">
        <ele>289.45874</ele>
        <time>2008-09-21T09:22:59Z</time>
      </trkpt>
      <trkpt lat="43.46243" lon="1.10578">
        <ele>286.190613</ele>
        <time>2008-09-21T09:23:15Z</time>
      </trkpt>
      <trkpt lat="43.46206" lon="1.10603">
        <ele>285.282928</ele>
        <time>2008-09-21T09:23:25Z</time>
      </trkpt>
      <trkpt lat="43.46182" lon="1.10616">
        <ele>285.238739</ele>
        <time>2008-09-21T09:23:32Z</time>
      </trkpt>
      <trkpt lat="43.46138" lon="1.10603">
        <ele>286.418762</ele>
        <time>2008-09-21T09:23:46Z</time>
      </trkpt>
      <trkpt lat="43.461" lon="1.10586">
        <ele>286.923737</ele>
        <time>2008-09-21T09:23:59Z</time>
      </trkpt>
      <trkpt lat="43.46067" lon="1.10572">
        <ele>286.930634</ele>
        <time>2008-09-21T09:24:10Z</time>
      </trkpt>
      <trkpt lat="43.46045" lon="1.10561">
        <ele>286.849548</ele>
        <time>2008-09-21T09:24:18Z</time>
      </trkpt>
      <trkpt lat="43.46018" lon="1.10548">
        <ele>286.495483</ele>
        <time>2008-09-21T09:24:28Z</time>
      </trkpt>
      <trkpt lat="43.46007" lon="1.10543">
        <ele>286.196259</ele>
        <time>2008-09-21T09:24:33Z</time>
      </trkpt>
      <trkpt lat="43.46001" lon="1.10555">
        <ele>285.5625</ele>
        <time>2008-09-21T09:24:37Z</time>
      </trkpt>
      <trkpt lat="43.46001" lon="1.10575">
        <ele>284.850006</ele>
        <time>2008-09-21T09:24:41Z</time>
      </trkpt>
      <trkpt lat="43.46001" lon="1.10588">
        <ele>284.44751</ele>
        <time>2008-09-21T09:24:43Z</time>
      </trkpt>
      <trkpt lat="43.45993" lon="1.10711">
        <ele>280.518799</ele>
        <time>2008-09-21T09:24:58Z</time>
      </trkpt>
      <trkpt lat="43.45984" lon="1.10861">
        <ele>276.86499</ele>
        <time>2008-09-21T09:25:13Z</time>
      </trkpt>
      <trkpt lat="43.45982" lon="1.10911">
        <ele>275.94162</ele>
        <time>2008-09-21T09:25:18Z</time>
      </trkpt>
      <trkpt lat="43.45977" lon="1.1096">
        <ele>274.984985</ele>
        <time>2008-09-21T09:25:23Z</time>
      </trkpt>
      <trkpt lat="43.45957" lon="1.11057">
        <ele>273.63501</ele>
        <time>2008-09-21T09:25:34Z</time>
      </trkpt>
      <trkpt lat="43.45947" lon="1.11115">
        <ele>273.392487</ele>
        <time>2008-09-21T09:25:42Z</time>
      </trkpt>
      <trkpt lat="43.4596" lon="1.11134">
        <ele>273.670013</ele>
        <time>2008-09-21T09:25:47Z</time>
      </trkpt>
      <trkpt lat="43.46002" lon="1.1115">
        <ele>273.286255</ele>
        <time>2008-09-21T09:26:02Z</time>
      </trkpt>
      <trkpt lat="43.46004" lon="1.11151">
        <ele>273.21875</ele>
        <time>2008-09-21T09:26:03Z</time>
      </trkpt>
      <trkpt lat="43.46003" lon="1.11176">
        <ele>272.853119</ele>
        <time>2008-09-21T09:26:09Z</time>
      </trkpt>
      <trkpt lat="43.46004" lon="1.11183">
        <ele>272.704376</ele>
        <time>2008-09-21T09:26:18Z</time>
      </trkpt>
      <trkpt lat="43.46002" lon="1.11182">
        <ele>272.779388</ele>
        <time>2008-09-21T09:28:14Z</time>
      </trkpt>
      <trkpt lat="43.46001" lon="1.11183">
        <ele>272.785004</ele>
        <time>2008-09-21T09:31:01Z</time>
      </trkpt>
      <trkpt lat="43.46" lon="1.11179">
        <ele>272.868134</ele>
        <time>2008-09-21T09:33:45Z</time>
      </trkpt>
      <trkpt lat="43.45976" lon="1.1124">
        <ele>272.986603</ele>
        <time>2008-09-21T09:34:06Z</time>
      </trkpt>
      <trkpt lat="43.45966" lon="1.11306">
        <ele>270.256317</ele>
        <time>2008-09-21T09:34:20Z</time>
      </trkpt>
      <trkpt lat="43.45955" lon="1.11377">
        <ele>265.984528</ele>
        <time>2008-09-21T09:34:35Z</time>
      </trkpt>
      <trkpt lat="43.45947" lon="1.11417">
        <ele>264.503357</ele>
        <time>2008-09-21T09:34:42Z</time>
      </trkpt>
      <trkpt lat="43.45934" lon="1.1143">
        <ele>264.115143</ele>
        <time>2008-09-21T09:34:47Z</time>
      </trkpt>
      <trkpt lat="43.45896" lon="1.11417">
        <ele>264.786865</ele>
        <time>2008-09-21T09:35:00Z</time>
      </trkpt>
      <trkpt lat="43.45884" lon="1.11465">
        <ele>262.87851</ele>
        <time>2008-09-21T09:35:09Z</time>
      </trkpt>
      <trkpt lat="43.45867" lon="1.11481">
        <ele>262.111145</ele>
        <time>2008-09-21T09:35:13Z</time>
      </trkpt>
      <trkpt lat="43.45777" lon="1.1153">
        <ele>261.424835</ele>
        <time>2008-09-21T09:35:25Z</time>
      </trkpt>
      <trkpt lat="43.45744" lon="1.1155">
        <ele>266.291168</ele>
        <time>2008-09-21T09:35:32Z</time>
      </trkpt>
      <trkpt lat="43.4574" lon="1.11559">
        <ele>266.752319</ele>
        <time>2008-09-21T09:35:35Z</time>
      </trkpt>
      <trkpt lat="43.45733" lon="1.11564">
        <ele>267.50058</ele>
        <time>2008-09-21T09:35:38Z</time>
      </trkpt>
      <trkpt lat="43.45709" lon="1.11587">
        <ele>269.858765</ele>
        <time>2008-09-21T09:35:51Z</time>
      </trkpt>
      <trkpt lat="43.45657" lon="1.11621">
        <ele>269.626953</ele>
        <time>2008-09-21T09:36:07Z</time>
      </trkpt>
      <trkpt lat="43.45585" lon="1.11672">
        <ele>263.857513</ele>
        <time>2008-09-21T09:36:19Z</time>
      </trkpt>
      <trkpt lat="43.45508" lon="1.11744">
        <ele>255.975662</ele>
        <time>2008-09-21T09:36:32Z</time>
      </trkpt>
      <trkpt lat="43.45507" lon="1.11746">
        <ele>255.871613</ele>
        <time>2008-09-21T09:36:45Z</time>
      </trkpt>
      <trkpt lat="43.455" lon="1.1175">
        <ele>255.683868</ele>
        <time>2008-09-21T09:37:22Z</time>
      </trkpt>
      <trkpt lat="43.45468" lon="1.11706">
        <ele>257.459076</ele>
        <time>2008-09-21T09:37:36Z</time>
      </trkpt>
      <trkpt lat="43.4545" lon="1.11677">
        <ele>257.578583</ele>
        <time>2008-09-21T09:37:44Z</time>
      </trkpt>
      <trkpt lat="43.45422" lon="1.11677">
        <ele>258.893646</ele>
        <time>2008-09-21T09:37:56Z</time>
      </trkpt>
      <trkpt lat="43.45397" lon="1.11694">
        <ele>261.810181</ele>
        <time>2008-09-21T09:38:11Z</time>
      </trkpt>
      <trkpt lat="43.45366" lon="1.11707">
        <ele>267.497498</ele>
        <time>2008-09-21T09:38:30Z</time>
      </trkpt>
      <trkpt lat="43.45334" lon="1.11722">
        <ele>271.993042</ele>
        <time>2008-09-21T09:38:50Z</time>
      </trkpt>
      <trkpt lat="43.45298" lon="1.11757">
        <ele>275.677704</ele>
        <time>2008-09-21T09:39:07Z</time>
      </trkpt>
      <trkpt lat="43.4527" lon="1.11783">
        <ele>276.752869</ele>
        <time>2008-09-21T09:39:18Z</time>
      </trkpt>
      <trkpt lat="43.45229" lon="1.11822">
        <ele>276.062469</ele>
        <time>2008-09-21T09:39:34Z</time>
      </trkpt>
      <trkpt lat="43.45181" lon="1.11857">
        <ele>275.108002</ele>
        <time>2008-09-21T09:39:51Z</time>
      </trkpt>
      <trkpt lat="43.4516" lon="1.11867">
        <ele>274.8638</ele>
        <time>2008-09-21T09:39:59Z</time>
      </trkpt>
      <trkpt lat="43.45156" lon="1.1188">
        <ele>274.731201</ele>
        <time>2008-09-21T09:40:02Z</time>
      </trkpt>
      <trkpt lat="43.45108" lon="1.11969">
        <ele>272.918121</ele>
        <time>2008-09-21T09:40:19Z</time>
      </trkpt>
      <trkpt lat="43.45057" lon="1.12056">
        <ele>271.23468</ele>
        <time>2008-09-21T09:40:35Z</time>
      </trkpt>
      <trkpt lat="43.45015" lon="1.1213">
        <ele>268.676239</ele>
        <time>2008-09-21T09:40:46Z</time>
      </trkpt>
      <trkpt lat="43.44976" lon="1.12163">
        <ele>268.23111</ele>
        <time>2008-09-21T09:40:53Z</time>
      </trkpt>
      <trkpt lat="43.44961" lon="1.12189">
        <ele>267.747223</ele>
        <time>2008-09-21T09:40:57Z</time>
      </trkpt>
      <trkpt lat="43.44897" lon="1.12333">
        <ele>259.594543</ele>
        <time>2008-09-21T09:41:16Z</time>
      </trkpt>
      <trkpt lat="43.44841" lon="1.12452">
        <ele>251.694427</ele>
        <time>2008-09-21T09:41:28Z</time>
      </trkpt>
      <trkpt lat="43.44806" lon="1.12478">
        <ele>254.289597</ele>
        <time>2008-09-21T09:41:35Z</time>
      </trkpt>
      <trkpt lat="43.44805" lon="1.12484">
        <ele>254.685699</ele>
        <time>2008-09-21T09:41:36Z</time>
      </trkpt>
      <trkpt lat="43.44785" lon="1.12525">
        <ele>259.646729</ele>
        <time>2008-09-21T09:41:47Z</time>
      </trkpt>
      <trkpt lat="43.4475" lon="1.12517">
        <ele>264.494995</ele>
        <time>2008-09-21T09:42:01Z</time>
      </trkpt>
      <trkpt lat="43.44722" lon="1.12493">
        <ele>267.019073</ele>
        <time>2008-09-21T09:42:15Z</time>
      </trkpt>
      <trkpt lat="43.4469" lon="1.12459">
        <ele>270.034515</ele>
        <time>2008-09-21T09:42:35Z</time>
      </trkpt>
      <trkpt lat="43.44657" lon="1.12443">
        <ele>272.260498</ele>
        <time>2008-09-21T09:42:54Z</time>
      </trkpt>
      <trkpt lat="43.44613" lon="1.12467">
        <ele>273.994232</ele>
        <time>2008-09-21T09:43:16Z</time>
      </trkpt>
      <trkpt lat="43.44576" lon="1.12486">
        <ele>273.256866</ele>
        <time>2008-09-21T09:43:29Z</time>
      </trkpt>
      <trkpt lat="43.44528" lon="1.12513">
        <ele>272.146179</ele>
        <time>2008-09-21T09:43:43Z</time>
      </trkpt>
      <trkpt lat="43.44508" lon="1.12512">
        <ele>272.007324</ele>
        <time>2008-09-21T09:43:48Z</time>
      </trkpt>
      <trkpt lat="43.44461" lon="1.12495">
        <ele>272.012512</ele>
        <time>2008-09-21T09:44:01Z</time>
      </trkpt>
      <trkpt lat="43.44411" lon="1.12491">
        <ele>273</ele>
        <time>2008-09-21T09:44:14Z</time>
      </trkpt>
      <trkpt lat="43.44388" lon="1.12468">
        <ele>273</ele>
        <time>2008-09-21T09:44:24Z</time>
      </trkpt>
      <trkpt lat="43.44395" lon="1.12359">
        <ele>273</ele>
        <time>2008-09-21T09:44:43Z</time>
      </trkpt>
      <trkpt lat="43.44398" lon="1.12307">
        <ele>273.261719</ele>
        <time>2008-09-21T09:44:51Z</time>
      </trkpt>
      <trkpt lat="43.44394" lon="1.12197">
        <ele>274.264679</ele>
        <time>2008-09-21T09:45:08Z</time>
      </trkpt>
      <trkpt lat="43.44393" lon="1.12186">
        <ele>274.356018</ele>
        <time>2008-09-21T09:45:10Z</time>
      </trkpt>
      <trkpt lat="43.44391" lon="1.12168">
        <ele>274.48111</ele>
        <time>2008-09-21T09:45:13Z</time>
      </trkpt>
      <trkpt lat="43.44391" lon="1.12139">
        <ele>274.710205</ele>
        <time>2008-09-21T09:45:18Z</time>
      </trkpt>
      <trkpt lat="43.44387" lon="1.12101">
        <ele>275.036865</ele>
        <time>2008-09-21T09:45:24Z</time>
      </trkpt>
      <trkpt lat="43.4438" lon="1.12021">
        <ele>276</ele>
        <time>2008-09-21T09:45:36Z</time>
      </trkpt>
      <trkpt lat="43.44362" lon="1.11955">
        <ele>276</ele>
        <time>2008-09-21T09:45:47Z</time>
      </trkpt>
      <trkpt lat="43.44334" lon="1.11858">
        <ele>276.675049</ele>
        <time>2008-09-21T09:46:02Z</time>
      </trkpt>
      <trkpt lat="43.44309" lon="1.11774">
        <ele>276.800507</ele>
        <time>2008-09-21T09:46:15Z</time>
      </trkpt>
      <trkpt lat="43.44282" lon="1.11684">
        <ele>277.619995</ele>
        <time>2008-09-21T09:46:29Z</time>
      </trkpt>
      <trkpt lat="43.44277" lon="1.1167">
        <ele>277.771271</ele>
        <time>2008-09-21T09:46:32Z</time>
      </trkpt>
      <trkpt lat="43.44265" lon="1.11653">
        <ele>277.888092</ele>
        <time>2008-09-21T09:46:36Z</time>
      </trkpt>
      <trkpt lat="43.44195" lon="1.11528">
        <ele>279.026245</ele>
        <time>2008-09-21T09:46:59Z</time>
      </trkpt>
      <trkpt lat="43.44144" lon="1.11412">
        <ele>278.517487</ele>
        <time>2008-09-21T09:47:17Z</time>
      </trkpt>
      <trkpt lat="43.44088" lon="1.11284">
        <ele>278.63562</ele>
        <time>2008-09-21T09:47:35Z</time>
      </trkpt>
      <trkpt lat="43.44069" lon="1.11172">
        <ele>277.297211</ele>
        <time>2008-09-21T09:47:48Z</time>
      </trkpt>
      <trkpt lat="43.44068" lon="1.11164">
        <ele>277.232727</ele>
        <time>2008-09-21T09:47:49Z</time>
      </trkpt>
      <trkpt lat="43.44063" lon="1.11097">
        <ele>277.699738</ele>
        <time>2008-09-21T09:47:57Z</time>
      </trkpt>
      <trkpt lat="43.44062" lon="1.11081">
        <ele>278.158844</ele>
        <time>2008-09-21T09:47:59Z</time>
      </trkpt>
      <trkpt lat="43.4405" lon="1.10922">
        <ele>281.559998</ele>
        <time>2008-09-21T09:48:19Z</time>
      </trkpt>
      <trkpt lat="43.44026" lon="1.1082">
        <ele>280.4133</ele>
        <time>2008-09-21T09:48:33Z</time>
      </trkpt>
      <trkpt lat="43.44008" lon="1.1069">
        <ele>281.062073</ele>
        <time>2008-09-21T09:48:50Z</time>
      </trkpt>
      <trkpt lat="43.44002" lon="1.10621">
        <ele>282.915619</ele>
        <time>2008-09-21T09:49:01Z</time>
      </trkpt>
      <trkpt lat="43.43997" lon="1.10561">
        <ele>283.850006</ele>
        <time>2008-09-21T09:49:11Z</time>
      </trkpt>
      <trkpt lat="43.43997" lon="1.10555">
        <ele>283.857513</ele>
        <time>2008-09-21T09:49:12Z</time>
      </trkpt>
      <trkpt lat="43.43993" lon="1.10511">
        <ele>283.932495</ele>
        <time>2008-09-21T09:49:20Z</time>
      </trkpt>
      <trkpt lat="43.43987" lon="1.10448">
        <ele>284</ele>
        <time>2008-09-21T09:49:32Z</time>
      </trkpt>
      <trkpt lat="43.43986" lon="1.10437">
        <ele>283.865814</ele>
        <time>2008-09-21T09:49:34Z</time>
      </trkpt>
      <trkpt lat="43.43982" lon="1.10399">
        <ele>283.349701</ele>
        <time>2008-09-21T09:49:41Z</time>
      </trkpt>
      <trkpt lat="43.43977" lon="1.10344">
        <ele>283.408844</ele>
        <time>2008-09-21T09:49:51Z</time>
      </trkpt>
      <trkpt lat="43.43973" lon="1.10288">
        <ele>283.654999</ele>
        <time>2008-09-21T09:50:01Z</time>
      </trkpt>
      <trkpt lat="43.4397" lon="1.10255">
        <ele>283.698242</ele>
        <time>2008-09-21T09:50:07Z</time>
      </trkpt>
      <trkpt lat="43.43965" lon="1.10201">
        <ele>283.425415</ele>
        <time>2008-09-21T09:50:17Z</time>
      </trkpt>
      <trkpt lat="43.4396" lon="1.10146">
        <ele>283.208405</ele>
        <time>2008-09-21T09:50:27Z</time>
      </trkpt>
      <trkpt lat="43.43956" lon="1.10095">
        <ele>283.065277</ele>
        <time>2008-09-21T09:50:36Z</time>
      </trkpt>
      <trkpt lat="43.4395" lon="1.10022">
        <ele>283.309998</ele>
        <time>2008-09-21T09:50:49Z</time>
      </trkpt>
      <trkpt lat="43.43945" lon="1.09967">
        <ele>283.602509</ele>
        <time>2008-09-21T09:50:59Z</time>
      </trkpt>
      <trkpt lat="43.43939" lon="1.099">
        <ele>283.94751</ele>
        <time>2008-09-21T09:51:11Z</time>
      </trkpt>
      <trkpt lat="43.43932" lon="1.09827">
        <ele>285.343964</ele>
        <time>2008-09-21T09:51:24Z</time>
      </trkpt>
      <trkpt lat="43.43918" lon="1.0973">
        <ele>288.991608</ele>
        <time>2008-09-21T09:51:44Z</time>
      </trkpt>
      <trkpt lat="43.43864" lon="1.09737">
        <ele>289.394989</ele>
        <time>2008-09-21T09:51:56Z</time>
      </trkpt>
      <trkpt lat="43.4384" lon="1.09738">
        <ele>288.62323</ele>
        <time>2008-09-21T09:52:00Z</time>
      </trkpt>
      <trkpt lat="43.43822" lon="1.09727">
        <ele>287.793579</ele>
        <time>2008-09-21T09:52:05Z</time>
      </trkpt>
      <trkpt lat="43.43792" lon="1.09721">
        <ele>286.225616</ele>
        <time>2008-09-21T09:52:13Z</time>
      </trkpt>
      <trkpt lat="43.43705" lon="1.09718">
        <ele>280.633118</ele>
        <time>2008-09-21T09:52:30Z</time>
      </trkpt>
      <trkpt lat="43.43639" lon="1.0972">
        <ele>277.751038</ele>
        <time>2008-09-21T09:52:41Z</time>
      </trkpt>
      <trkpt lat="43.43577" lon="1.09712">
        <ele>275.005127</ele>
        <time>2008-09-21T09:52:50Z</time>
      </trkpt>
      <trkpt lat="43.4356" lon="1.09677">
        <ele>273.695892</ele>
        <time>2008-09-21T09:52:54Z</time>
      </trkpt>
      <trkpt lat="43.43555" lon="1.09659">
        <ele>273.148102</ele>
        <time>2008-09-21T09:52:56Z</time>
      </trkpt>
      <trkpt lat="43.43541" lon="1.09612">
        <ele>272.428467</ele>
        <time>2008-09-21T09:53:01Z</time>
      </trkpt>
      <trkpt lat="43.43535" lon="1.09593">
        <ele>272.296631</ele>
        <time>2008-09-21T09:53:03Z</time>
      </trkpt>
      <trkpt lat="43.43526" lon="1.09517">
        <ele>270.556885</ele>
        <time>2008-09-21T09:53:10Z</time>
      </trkpt>
      <trkpt lat="43.43524" lon="1.09423">
        <ele>269.786255</ele>
        <time>2008-09-21T09:53:19Z</time>
      </trkpt>
      <trkpt lat="43.43519" lon="1.09366">
        <ele>270.288757</ele>
        <time>2008-09-21T09:53:25Z</time>
      </trkpt>
      <trkpt lat="43.43511" lon="1.09313">
        <ele>271.359985</ele>
        <time>2008-09-21T09:53:31Z</time>
      </trkpt>
      <trkpt lat="43.43505" lon="1.0929">
        <ele>271.882507</ele>
        <time>2008-09-21T09:53:34Z</time>
      </trkpt>
      <trkpt lat="43.43482" lon="1.09223">
        <ele>272.069366</ele>
        <time>2008-09-21T09:53:44Z</time>
      </trkpt>
      <trkpt lat="43.43445" lon="1.09124">
        <ele>270.660004</ele>
        <time>2008-09-21T09:53:58Z</time>
      </trkpt>
      <trkpt lat="43.43389" lon="1.08965">
        <ele>269.53125</ele>
        <time>2008-09-21T09:54:21Z</time>
      </trkpt>
      <trkpt lat="43.43359" lon="1.08837">
        <ele>272.096863</ele>
        <time>2008-09-21T09:54:41Z</time>
      </trkpt>
      <trkpt lat="43.43334" lon="1.08714">
        <ele>271.609985</ele>
        <time>2008-09-21T09:55:01Z</time>
      </trkpt>
      <trkpt lat="43.43333" lon="1.0869">
        <ele>271.512512</ele>
        <time>2008-09-21T09:55:05Z</time>
      </trkpt>
      <trkpt lat="43.43358" lon="1.08433">
        <ele>275.718323</ele>
        <time>2008-09-21T09:55:49Z</time>
      </trkpt>
      <trkpt lat="43.4335" lon="1.08326">
        <ele>278.145172</ele>
        <time>2008-09-21T09:56:09Z</time>
      </trkpt>
      <trkpt lat="43.43336" lon="1.08076">
        <ele>283.5</ele>
        <time>2008-09-21T09:56:51Z</time>
      </trkpt>
      <trkpt lat="43.43332" lon="1.07946">
        <ele>285.047668</ele>
        <time>2008-09-21T09:57:14Z</time>
      </trkpt>
      <trkpt lat="43.43332" lon="1.07902">
        <ele>285.149994</ele>
        <time>2008-09-21T09:57:22Z</time>
      </trkpt>
      <trkpt lat="43.43345" lon="1.07784">
        <ele>285.986237</ele>
        <time>2008-09-21T09:57:42Z</time>
      </trkpt>
      <trkpt lat="43.43341" lon="1.07678">
        <ele>282.801819</ele>
        <time>2008-09-21T09:57:55Z</time>
      </trkpt>
      <trkpt lat="43.43319" lon="1.07526">
        <ele>282.266235</ele>
        <time>2008-09-21T09:58:11Z</time>
      </trkpt>
      <trkpt lat="43.43305" lon="1.07529">
        <ele>281.587494</ele>
        <time>2008-09-21T09:58:14Z</time>
      </trkpt>
      <trkpt lat="43.43281" lon="1.07551">
        <ele>280.174377</ele>
        <time>2008-09-21T09:58:18Z</time>
      </trkpt>
      <trkpt lat="43.43261" lon="1.07576">
        <ele>278.889374</ele>
        <time>2008-09-21T09:58:22Z</time>
      </trkpt>
      <trkpt lat="43.43248" lon="1.07596">
        <ele>277.9375</ele>
        <time>2008-09-21T09:58:25Z</time>
      </trkpt>
      <trkpt lat="43.43033" lon="1.07839">
        <ele>269.380524</ele>
        <time>2008-09-21T09:59:01Z</time>
      </trkpt>
      <trkpt lat="43.43027" lon="1.07845">
        <ele>269.391785</ele>
        <time>2008-09-21T09:59:02Z</time>
      </trkpt>
      <trkpt lat="43.43009" lon="1.07825">
        <ele>270.171906</ele>
        <time>2008-09-21T09:59:08Z</time>
      </trkpt>
      <trkpt lat="43.43012" lon="1.07801">
        <ele>270.119995</ele>
        <time>2008-09-21T09:59:12Z</time>
      </trkpt>
      <trkpt lat="43.43013" lon="1.07795">
        <ele>270.070007</ele>
        <time>2008-09-21T09:59:13Z</time>
      </trkpt>
      <trkpt lat="43.43013" lon="1.07774">
        <ele>270.054993</ele>
        <time>2008-09-21T09:59:16Z</time>
      </trkpt>
      <trkpt lat="43.43017" lon="1.07667">
        <ele>270.92749</ele>
        <time>2008-09-21T09:59:33Z</time>
      </trkpt>
      <trkpt lat="43.42996" lon="1.07594">
        <ele>272.303864</ele>
        <time>2008-09-21T09:59:44Z</time>
      </trkpt>
      <trkpt lat="43.42982" lon="1.07525">
        <ele>274.351868</ele>
        <time>2008-09-21T09:59:55Z</time>
      </trkpt>
      <trkpt lat="43.42971" lon="1.0746">
        <ele>276.376251</ele>
        <time>2008-09-21T10:00:05Z</time>
      </trkpt>
      <trkpt lat="43.42969" lon="1.07448">
        <ele>276.745636</ele>
        <time>2008-09-21T10:00:07Z</time>
      </trkpt>
      <trkpt lat="43.42955" lon="1.07379">
        <ele>279.880005</ele>
        <time>2008-09-21T10:00:18Z</time>
      </trkpt>
      <trkpt lat="43.42946" lon="1.07296">
        <ele>280.811249</ele>
        <time>2008-09-21T10:00:31Z</time>
      </trkpt>
      <trkpt lat="43.42927" lon="1.07169">
        <ele>281.140381</ele>
        <time>2008-09-21T10:00:49Z</time>
      </trkpt>
      <trkpt lat="43.42893" lon="1.06877">
        <ele>278.812073</ele>
        <time>2008-09-21T10:01:35Z</time>
      </trkpt>
      <trkpt lat="43.42873" lon="1.06722">
        <ele>277.887512</ele>
        <time>2008-09-21T10:02:02Z</time>
      </trkpt>
      <trkpt lat="43.42875" lon="1.06713">
        <ele>277.82251</ele>
        <time>2008-09-21T10:02:05Z</time>
      </trkpt>
      <trkpt lat="43.42866" lon="1.06669">
        <ele>278.675537</ele>
        <time>2008-09-21T10:02:18Z</time>
      </trkpt>
      <trkpt lat="43.42854" lon="1.06585">
        <ele>279.825012</ele>
        <time>2008-09-21T10:02:39Z</time>
      </trkpt>
      <trkpt lat="43.42827" lon="1.06519">
        <ele>281.471893</ele>
        <time>2008-09-21T10:02:54Z</time>
      </trkpt>
      <trkpt lat="43.42816" lon="1.06481">
        <ele>281.847107</ele>
        <time>2008-09-21T10:03:01Z</time>
      </trkpt>
      <trkpt lat="43.42804" lon="1.06426">
        <ele>284.021881</ele>
        <time>2008-09-21T10:03:13Z</time>
      </trkpt>
      <trkpt lat="43.4278" lon="1.0635">
        <ele>288.019989</ele>
        <time>2008-09-21T10:03:32Z</time>
      </trkpt>
      <trkpt lat="43.42754" lon="1.06296">
        <ele>291.048737</ele>
        <time>2008-09-21T10:03:48Z</time>
      </trkpt>
      <trkpt lat="43.42717" lon="1.06229">
        <ele>295.307495</ele>
        <time>2008-09-21T10:04:09Z</time>
      </trkpt>
      <trkpt lat="43.42675" lon="1.06174">
        <ele>298.828247</ele>
        <time>2008-09-21T10:04:30Z</time>
      </trkpt>
      <trkpt lat="43.42644" lon="1.06136">
        <ele>300.467499</ele>
        <time>2008-09-21T10:04:49Z</time>
      </trkpt>
      <trkpt lat="43.42658" lon="1.06133">
        <ele>298.407501</ele>
        <time>2008-09-21T10:04:52Z</time>
      </trkpt>
      <trkpt lat="43.42673" lon="1.0613">
        <ele>296.170013</ele>
        <time>2008-09-21T10:04:54Z</time>
      </trkpt>
      <trkpt lat="43.42787" lon="1.0613">
        <ele>281.88324</ele>
        <time>2008-09-21T10:05:05Z</time>
      </trkpt>
      <trkpt lat="43.42841" lon="1.06131">
        <ele>278.692017</ele>
        <time>2008-09-21T10:05:13Z</time>
      </trkpt>
      <trkpt lat="43.42888" lon="1.06119">
        <ele>278</ele>
        <time>2008-09-21T10:05:27Z</time>
      </trkpt>
      <trkpt lat="43.42914" lon="1.06082">
        <ele>278.351257</ele>
        <time>2008-09-21T10:05:37Z</time>
      </trkpt>
      <trkpt lat="43.42937" lon="1.06016">
        <ele>280.094604</ele>
        <time>2008-09-21T10:05:53Z</time>
      </trkpt>
      <trkpt lat="43.42968" lon="1.05927">
        <ele>284.234009</ele>
        <time>2008-09-21T10:06:16Z</time>
      </trkpt>
      <trkpt lat="43.42976" lon="1.05864">
        <ele>286.201874</ele>
        <time>2008-09-21T10:06:31Z</time>
      </trkpt>
      <trkpt lat="43.42977" lon="1.05816">
        <ele>287.277191</ele>
        <time>2008-09-21T10:06:41Z</time>
      </trkpt>
      <trkpt lat="43.42978" lon="1.05797">
        <ele>287.794525</ele>
        <time>2008-09-21T10:06:45Z</time>
      </trkpt>
      <trkpt lat="43.42979" lon="1.05788">
        <ele>288.014099</ele>
        <time>2008-09-21T10:06:47Z</time>
      </trkpt>
      <trkpt lat="43.42991" lon="1.05709">
        <ele>288.878113</ele>
        <time>2008-09-21T10:07:03Z</time>
      </trkpt>
      <trkpt lat="43.42996" lon="1.05687">
        <ele>288.832489</ele>
        <time>2008-09-21T10:07:07Z</time>
      </trkpt>
      <trkpt lat="43.43001" lon="1.05664">
        <ele>288.850616</ele>
        <time>2008-09-21T10:07:11Z</time>
      </trkpt>
      <trkpt lat="43.43043" lon="1.05537">
        <ele>288.715607</ele>
        <time>2008-09-21T10:07:33Z</time>
      </trkpt>
      <trkpt lat="43.43085" lon="1.05419">
        <ele>288.86377</ele>
        <time>2008-09-21T10:07:52Z</time>
      </trkpt>
      <trkpt lat="43.43129" lon="1.05317">
        <ele>288.163483</ele>
        <time>2008-09-21T10:08:11Z</time>
      </trkpt>
      <trkpt lat="43.43171" lon="1.05226">
        <ele>287.637482</ele>
        <time>2008-09-21T10:08:26Z</time>
      </trkpt>
      <trkpt lat="43.43179" lon="1.05205">
        <ele>287.382355</ele>
        <time>2008-09-21T10:08:30Z</time>
      </trkpt>
      <trkpt lat="43.4318" lon="1.05194">
        <ele>287.015045</ele>
        <time>2008-09-21T10:08:32Z</time>
      </trkpt>
      <trkpt lat="43.43146" lon="1.05093">
        <ele>283.606812</ele>
        <time>2008-09-21T10:08:46Z</time>
      </trkpt>
      <trkpt lat="43.43144" lon="1.05086">
        <ele>283.545776</ele>
        <time>2008-09-21T10:08:47Z</time>
      </trkpt>
      <trkpt lat="43.43138" lon="1.05063">
        <ele>283.510254</ele>
        <time>2008-09-21T10:08:50Z</time>
      </trkpt>
      <trkpt lat="43.43115" lon="1.04939">
        <ele>285.625</ele>
        <time>2008-09-21T10:09:06Z</time>
      </trkpt>
      <trkpt lat="43.43122" lon="1.04902">
        <ele>286.404999</ele>
        <time>2008-09-21T10:09:12Z</time>
      </trkpt>
      <trkpt lat="43.43147" lon="1.04824">
        <ele>288.235016</ele>
        <time>2008-09-21T10:09:28Z</time>
      </trkpt>
      <trkpt lat="43.43131" lon="1.04815">
        <ele>288.860016</ele>
        <time>2008-09-21T10:09:33Z</time>
      </trkpt>
      <trkpt lat="43.43098" lon="1.0483">
        <ele>288.568298</ele>
        <time>2008-09-21T10:09:40Z</time>
      </trkpt>
      <trkpt lat="43.43079" lon="1.04843">
        <ele>288.584747</ele>
        <time>2008-09-21T10:09:44Z</time>
      </trkpt>
      <trkpt lat="43.43053" lon="1.04859">
        <ele>288.553131</ele>
        <time>2008-09-21T10:09:49Z</time>
      </trkpt>
      <trkpt lat="43.43031" lon="1.0486">
        <ele>288.118286</ele>
        <time>2008-09-21T10:09:53Z</time>
      </trkpt>
      <trkpt lat="43.42954" lon="1.04834">
        <ele>288.901611</ele>
        <time>2008-09-21T10:10:05Z</time>
      </trkpt>
      <trkpt lat="43.42943" lon="1.04826">
        <ele>289.784027</ele>
        <time>2008-09-21T10:10:07Z</time>
      </trkpt>
      <trkpt lat="43.42928" lon="1.04805">
        <ele>291.488739</ele>
        <time>2008-09-21T10:10:11Z</time>
      </trkpt>
      <trkpt lat="43.4292" lon="1.04789">
        <ele>292.618652</ele>
        <time>2008-09-21T10:10:14Z</time>
      </trkpt>
      <trkpt lat="43.42853" lon="1.04686">
        <ele>294.890106</ele>
        <time>2008-09-21T10:10:36Z</time>
      </trkpt>
      <trkpt lat="43.42844" lon="1.04677">
        <ele>294.217743</ele>
        <time>2008-09-21T10:10:38Z</time>
      </trkpt>
      <trkpt lat="43.42825" lon="1.0464">
        <ele>288.068756</ele>
        <time>2008-09-21T10:10:44Z</time>
      </trkpt>
      <trkpt lat="43.42777" lon="1.04646">
        <ele>279.197449</ele>
        <time>2008-09-21T10:10:52Z</time>
      </trkpt>
      <trkpt lat="43.42701" lon="1.04643">
        <ele>271.273712</ele>
        <time>2008-09-21T10:11:03Z</time>
      </trkpt>
      <trkpt lat="43.42638" lon="1.04638">
        <ele>270.245728</ele>
        <time>2008-09-21T10:11:17Z</time>
      </trkpt>
      <trkpt lat="43.42605" lon="1.04626">
        <ele>265.217377</ele>
        <time>2008-09-21T10:11:31Z</time>
      </trkpt>
      <trkpt lat="43.42576" lon="1.0464">
        <ele>259.792023</ele>
        <time>2008-09-21T10:11:36Z</time>
      </trkpt>
      <trkpt lat="43.42524" lon="1.04706">
        <ele>250.440796</ele>
        <time>2008-09-21T10:11:47Z</time>
      </trkpt>
      <trkpt lat="43.4251" lon="1.04721">
        <ele>246.823792</ele>
        <time>2008-09-21T10:11:56Z</time>
      </trkpt>
      <trkpt lat="43.42505" lon="1.04722">
        <ele>246.023087</ele>
        <time>2008-09-21T10:12:12Z</time>
      </trkpt>
      <trkpt lat="43.42499" lon="1.04722">
        <ele>245.171829</ele>
        <time>2008-09-21T10:12:14Z</time>
      </trkpt>
      <trkpt lat="43.42481" lon="1.0472">
        <ele>242.819702</ele>
        <time>2008-09-21T10:12:18Z</time>
      </trkpt>
      <trkpt lat="43.42373" lon="1.04733">
        <ele>230.763748</ele>
        <time>2008-09-21T10:12:36Z</time>
      </trkpt>
      <trkpt lat="43.4236" lon="1.04738">
        <ele>230.285995</ele>
        <time>2008-09-21T10:12:46Z</time>
      </trkpt>
      <trkpt lat="43.42349" lon="1.04738">
        <ele>230.054077</ele>
        <time>2008-09-21T10:13:00Z</time>
      </trkpt>
      <trkpt lat="43.42311" lon="1.04724">
        <ele>233.779709</ele>
        <time>2008-09-21T10:13:19Z</time>
      </trkpt>
      <trkpt lat="43.42304" lon="1.04735">
        <ele>235.168579</ele>
        <time>2008-09-21T10:13:25Z</time>
      </trkpt>
      <trkpt lat="43.42297" lon="1.04749">
        <ele>237.219131</ele>
        <time>2008-09-21T10:13:32Z</time>
      </trkpt>
      <trkpt lat="43.42286" lon="1.04765">
        <ele>238.360962</ele>
        <time>2008-09-21T10:13:42Z</time>
      </trkpt>
      <trkpt lat="43.42277" lon="1.04774">
        <ele>239.76387</ele>
        <time>2008-09-21T10:13:50Z</time>
      </trkpt>
      <trkpt lat="43.42263" lon="1.04783">
        <ele>241.927032</ele>
        <time>2008-09-21T10:14:01Z</time>
      </trkpt>
      <trkpt lat="43.4225" lon="1.04791">
        <ele>244.173019</ele>
        <time>2008-09-21T10:14:11Z</time>
      </trkpt>
      <trkpt lat="43.42243" lon="1.04795">
        <ele>245.376114</ele>
        <time>2008-09-21T10:14:16Z</time>
      </trkpt>
      <trkpt lat="43.42227" lon="1.04804">
        <ele>248.524826</ele>
        <time>2008-09-21T10:14:28Z</time>
      </trkpt>
      <trkpt lat="43.42214" lon="1.04812">
        <ele>251.231567</ele>
        <time>2008-09-21T10:14:37Z</time>
      </trkpt>
      <trkpt lat="43.422" lon="1.0482">
        <ele>252.825623</ele>
        <time>2008-09-21T10:14:47Z</time>
      </trkpt>
      <trkpt lat="43.42196" lon="1.04822">
        <ele>253.366608</ele>
        <time>2008-09-21T10:14:50Z</time>
      </trkpt>
      <trkpt lat="43.42182" lon="1.0483">
        <ele>255.575867</ele>
        <time>2008-09-21T10:15:01Z</time>
      </trkpt>
      <trkpt lat="43.42169" lon="1.04837">
        <ele>257.768829</ele>
        <time>2008-09-21T10:15:11Z</time>
      </trkpt>
      <trkpt lat="43.42153" lon="1.04846">
        <ele>258.937134</ele>
        <time>2008-09-21T10:15:22Z</time>
      </trkpt>
      <trkpt lat="43.42152" lon="1.04847">
        <ele>259.069733</ele>
        <time>2008-09-21T10:15:23Z</time>
      </trkpt>
      <trkpt lat="43.42143" lon="1.04854">
        <ele>260.281586</ele>
        <time>2008-09-21T10:15:30Z</time>
      </trkpt>
      <trkpt lat="43.42128" lon="1.04871">
        <ele>263.368317</ele>
        <time>2008-09-21T10:15:43Z</time>
      </trkpt>
      <trkpt lat="43.42117" lon="1.04885">
        <ele>263.702789</ele>
        <time>2008-09-21T10:15:52Z</time>
      </trkpt>
      <trkpt lat="43.42116" lon="1.04887">
        <ele>263.729309</ele>
        <time>2008-09-21T10:15:53Z</time>
      </trkpt>
      <trkpt lat="43.42094" lon="1.04918">
        <ele>266.321472</ele>
        <time>2008-09-21T10:16:11Z</time>
      </trkpt>
      <trkpt lat="43.42094" lon="1.04921">
        <ele>266.706421</ele>
        <time>2008-09-21T10:16:12Z</time>
      </trkpt>
      <trkpt lat="43.42068" lon="1.04967">
        <ele>269.205383</ele>
        <time>2008-09-21T10:16:34Z</time>
      </trkpt>
      <trkpt lat="43.4205" lon="1.05003">
        <ele>271.71875</ele>
        <time>2008-09-21T10:16:52Z</time>
      </trkpt>
      <trkpt lat="43.42029" lon="1.05031">
        <ele>272.599304</ele>
        <time>2008-09-21T10:17:09Z</time>
      </trkpt>
      <trkpt lat="43.4201" lon="1.05064">
        <ele>275.933197</ele>
        <time>2008-09-21T10:17:27Z</time>
      </trkpt>
      <trkpt lat="43.41991" lon="1.051">
        <ele>280.031311</ele>
        <time>2008-09-21T10:17:47Z</time>
      </trkpt>
      <trkpt lat="43.41977" lon="1.05135">
        <ele>283.465057</ele>
        <time>2008-09-21T10:18:06Z</time>
      </trkpt>
      <trkpt lat="43.41959" lon="1.05163">
        <ele>287.508911</ele>
        <time>2008-09-21T10:18:23Z</time>
      </trkpt>
      <trkpt lat="43.41937" lon="1.0519">
        <ele>292.586823</ele>
        <time>2008-09-21T10:18:41Z</time>
      </trkpt>
      <trkpt lat="43.41904" lon="1.0523">
        <ele>295.868683</ele>
        <time>2008-09-21T10:19:04Z</time>
      </trkpt>
      <trkpt lat="43.41878" lon="1.05252">
        <ele>295.699982</ele>
        <time>2008-09-21T10:19:20Z</time>
      </trkpt>
      <trkpt lat="43.4184" lon="1.05278">
        <ele>292.986389</ele>
        <time>2008-09-21T10:19:35Z</time>
      </trkpt>
      <trkpt lat="43.41825" lon="1.05292">
        <ele>292.353943</ele>
        <time>2008-09-21T10:19:40Z</time>
      </trkpt>
      <trkpt lat="43.41801" lon="1.05312">
        <ele>292.492096</ele>
        <time>2008-09-21T10:19:46Z</time>
      </trkpt>
      <trkpt lat="43.41771" lon="1.0533">
        <ele>289.618073</ele>
        <time>2008-09-21T10:19:52Z</time>
      </trkpt>
      <trkpt lat="43.41751" lon="1.05336">
        <ele>289.86145</ele>
        <time>2008-09-21T10:20:02Z</time>
      </trkpt>
      <trkpt lat="43.41753" lon="1.05334">
        <ele>289.968018</ele>
        <time>2008-09-21T10:20:13Z</time>
      </trkpt>
      <trkpt lat="43.41751" lon="1.05335">
        <ele>289.980255</ele>
        <time>2008-09-21T10:20:29Z</time>
      </trkpt>
      <trkpt lat="43.41746" lon="1.05336">
        <ele>290.145233</ele>
        <time>2008-09-21T10:20:49Z</time>
      </trkpt>
      <trkpt lat="43.41707" lon="1.05343">
        <ele>292.342499</ele>
        <time>2008-09-21T10:21:05Z</time>
      </trkpt>
      <trkpt lat="43.41652" lon="1.05347">
        <ele>297.649536</ele>
        <time>2008-09-21T10:21:28Z</time>
      </trkpt>
      <trkpt lat="43.41621" lon="1.05348">
        <ele>301.652039</ele>
        <time>2008-09-21T10:21:44Z</time>
      </trkpt>
      <trkpt lat="43.41588" lon="1.0535">
        <ele>306.498657</ele>
        <time>2008-09-21T10:22:03Z</time>
      </trkpt>
      <trkpt lat="43.41552" lon="1.05352">
        <ele>311.779694</ele>
        <time>2008-09-21T10:22:25Z</time>
      </trkpt>
      <trkpt lat="43.41524" lon="1.05353">
        <ele>315.439972</ele>
        <time>2008-09-21T10:22:43Z</time>
      </trkpt>
      <trkpt lat="43.41492" lon="1.05357">
        <ele>317.995361</ele>
        <time>2008-09-21T10:23:03Z</time>
      </trkpt>
      <trkpt lat="43.41465" lon="1.05387">
        <ele>320.548279</ele>
        <time>2008-09-21T10:23:20Z</time>
      </trkpt>
      <trkpt lat="43.41426" lon="1.05442">
        <ele>323.9375</ele>
        <time>2008-09-21T10:23:43Z</time>
      </trkpt>
      <trkpt lat="43.41398" lon="1.0546">
        <ele>327.366211</ele>
        <time>2008-09-21T10:23:55Z</time>
      </trkpt>
      <trkpt lat="43.41376" lon="1.05471">
        <ele>330.532501</ele>
        <time>2008-09-21T10:24:04Z</time>
      </trkpt>
      <trkpt lat="43.41362" lon="1.05474">
        <ele>331.706177</ele>
        <time>2008-09-21T10:24:10Z</time>
      </trkpt>
      <trkpt lat="43.41353" lon="1.05476">
        <ele>331.932068</ele>
        <time>2008-09-21T10:24:14Z</time>
      </trkpt>
      <trkpt lat="43.41313" lon="1.05483">
        <ele>332.353302</ele>
        <time>2008-09-21T10:24:28Z</time>
      </trkpt>
      <trkpt lat="43.4131" lon="1.05484">
        <ele>332.338287</ele>
        <time>2008-09-21T10:24:29Z</time>
      </trkpt>
      <trkpt lat="43.41269" lon="1.05515">
        <ele>331.242493</ele>
        <time>2008-09-21T10:24:42Z</time>
      </trkpt>
      <trkpt lat="43.41192" lon="1.05551">
        <ele>329.380859</ele>
        <time>2008-09-21T10:24:56Z</time>
      </trkpt>
      <trkpt lat="43.41158" lon="1.05565">
        <ele>329.290771</ele>
        <time>2008-09-21T10:25:03Z</time>
      </trkpt>
      <trkpt lat="43.41142" lon="1.05576">
        <ele>329.100616</ele>
        <time>2008-09-21T10:25:07Z</time>
      </trkpt>
      <trkpt lat="43.41116" lon="1.05588">
        <ele>329.503754</ele>
        <time>2008-09-21T10:25:14Z</time>
      </trkpt>
      <trkpt lat="43.41078" lon="1.05604">
        <ele>330.420593</ele>
        <time>2008-09-21T10:25:23Z</time>
      </trkpt>
      <trkpt lat="43.41004" lon="1.05637">
        <ele>332.504761</ele>
        <time>2008-09-21T10:25:42Z</time>
      </trkpt>
      <trkpt lat="43.40946" lon="1.05668">
        <ele>334.532501</ele>
        <time>2008-09-21T10:26:01Z</time>
      </trkpt>
      <trkpt lat="43.40944" lon="1.05678">
        <ele>334.480011</ele>
        <time>2008-09-21T10:26:03Z</time>
      </trkpt>
      <trkpt lat="43.40943" lon="1.05814">
        <ele>333.90976</ele>
        <time>2008-09-21T10:26:25Z</time>
      </trkpt>
      <trkpt lat="43.40944" lon="1.05929">
        <ele>335.394989</ele>
        <time>2008-09-21T10:26:43Z</time>
      </trkpt>
      <trkpt lat="43.40928" lon="1.06045">
        <ele>333.509369</ele>
        <time>2008-09-21T10:26:59Z</time>
      </trkpt>
      <trkpt lat="43.40893" lon="1.06181">
        <ele>330.251556</ele>
        <time>2008-09-21T10:27:14Z</time>
      </trkpt>
      <trkpt lat="43.40844" lon="1.06353">
        <ele>326.098907</ele>
        <time>2008-09-21T10:27:33Z</time>
      </trkpt>
      <trkpt lat="43.40805" lon="1.06523">
        <ele>315.110992</ele>
        <time>2008-09-21T10:27:48Z</time>
      </trkpt>
      <trkpt lat="43.40775" lon="1.06669">
        <ele>307.37973</ele>
        <time>2008-09-21T10:27:59Z</time>
      </trkpt>
      <trkpt lat="43.4072" lon="1.06893">
        <ele>301.522705</ele>
        <time>2008-09-21T10:28:15Z</time>
      </trkpt>
      <trkpt lat="43.40717" lon="1.06901">
        <ele>301.309448</ele>
        <time>2008-09-21T10:28:16Z</time>
      </trkpt>
      <trkpt lat="43.40706" lon="1.06923">
        <ele>301.348755</ele>
        <time>2008-09-21T10:28:22Z</time>
      </trkpt>
      <trkpt lat="43.40679" lon="1.06916">
        <ele>304.632507</ele>
        <time>2008-09-21T10:28:34Z</time>
      </trkpt>
      <trkpt lat="43.40649" lon="1.06907">
        <ele>307.974182</ele>
        <time>2008-09-21T10:28:47Z</time>
      </trkpt>
      <trkpt lat="43.40627" lon="1.06892">
        <ele>310.470367</ele>
        <time>2008-09-21T10:28:58Z</time>
      </trkpt>
      <trkpt lat="43.4061" lon="1.06876">
        <ele>312.787323</ele>
        <time>2008-09-21T10:29:07Z</time>
      </trkpt>
      <trkpt lat="43.40578" lon="1.06862">
        <ele>316.957611</ele>
        <time>2008-09-21T10:29:21Z</time>
      </trkpt>
      <trkpt lat="43.40537" lon="1.06847">
        <ele>320.549988</ele>
        <time>2008-09-21T10:29:38Z</time>
      </trkpt>
      <trkpt lat="43.40486" lon="1.06832">
        <ele>324.889923</ele>
        <time>2008-09-21T10:30:00Z</time>
      </trkpt>
      <trkpt lat="43.40435" lon="1.0683">
        <ele>325.986298</ele>
        <time>2008-09-21T10:30:21Z</time>
      </trkpt>
      <trkpt lat="43.40406" lon="1.06834">
        <ele>325.891998</ele>
        <time>2008-09-21T10:30:33Z</time>
      </trkpt>
      <trkpt lat="43.40404" lon="1.06848">
        <ele>325.687012</ele>
        <time>2008-09-21T10:30:37Z</time>
      </trkpt>
      <trkpt lat="43.40401" lon="1.06919">
        <ele>324.543121</ele>
        <time>2008-09-21T10:30:53Z</time>
      </trkpt>
      <trkpt lat="43.40394" lon="1.07044">
        <ele>319.314392</ele>
        <time>2008-09-21T10:31:11Z</time>
      </trkpt>
      <trkpt lat="43.40393" lon="1.07052">
        <ele>318.959595</ele>
        <time>2008-09-21T10:31:12Z</time>
      </trkpt>
      <trkpt lat="43.40351" lon="1.07173">
        <ele>313.267578</ele>
        <time>2008-09-21T10:31:25Z</time>
      </trkpt>
      <trkpt lat="43.40327" lon="1.07233">
        <ele>309.757507</ele>
        <time>2008-09-21T10:31:31Z</time>
      </trkpt>
      <trkpt lat="43.40332" lon="1.0728">
        <ele>308.828461</ele>
        <time>2008-09-21T10:31:35Z</time>
      </trkpt>
      <trkpt lat="43.40339" lon="1.07303">
        <ele>308.434723</ele>
        <time>2008-09-21T10:31:37Z</time>
      </trkpt>
      <trkpt lat="43.40339" lon="1.07369">
        <ele>304.55249</ele>
        <time>2008-09-21T10:31:42Z</time>
      </trkpt>
      <trkpt lat="43.40343" lon="1.0741">
        <ele>302.547485</ele>
        <time>2008-09-21T10:31:45Z</time>
      </trkpt>
      <trkpt lat="43.4036" lon="1.07532">
        <ele>297.134308</ele>
        <time>2008-09-21T10:31:54Z</time>
      </trkpt>
      <trkpt lat="43.40379" lon="1.07655">
        <ele>290.846985</ele>
        <time>2008-09-21T10:32:03Z</time>
      </trkpt>
      <trkpt lat="43.4037" lon="1.07721">
        <ele>291.315033</ele>
        <time>2008-09-21T10:32:08Z</time>
      </trkpt>
      <trkpt lat="43.40366" lon="1.07733">
        <ele>291.965149</ele>
        <time>2008-09-21T10:32:09Z</time>
      </trkpt>
      <trkpt lat="43.40356" lon="1.07774">
        <ele>295.643738</ele>
        <time>2008-09-21T10:32:13Z</time>
      </trkpt>
      <trkpt lat="43.40364" lon="1.07794">
        <ele>296.499573</ele>
        <time>2008-09-21T10:32:18Z</time>
      </trkpt>
      <trkpt lat="43.40379" lon="1.07786">
        <ele>294.467865</ele>
        <time>2008-09-21T10:32:23Z</time>
      </trkpt>
      <trkpt lat="43.4039" lon="1.0779">
        <ele>293.692627</ele>
        <time>2008-09-21T10:32:27Z</time>
      </trkpt>
      <trkpt lat="43.40399" lon="1.0781">
        <ele>294.006409</ele>
        <time>2008-09-21T10:32:33Z</time>
      </trkpt>
      <trkpt lat="43.40413" lon="1.07821">
        <ele>293.335602</ele>
        <time>2008-09-21T10:32:37Z</time>
      </trkpt>
      <trkpt lat="43.40449" lon="1.07852">
        <ele>292.421997</ele>
        <time>2008-09-21T10:32:45Z</time>
      </trkpt>
      <trkpt lat="43.405" lon="1.07888">
        <ele>290.790466</ele>
        <time>2008-09-21T10:32:54Z</time>
      </trkpt>
      <trkpt lat="43.40516" lon="1.07901">
        <ele>290.351501</ele>
        <time>2008-09-21T10:32:57Z</time>
      </trkpt>
      <trkpt lat="43.40518" lon="1.07907">
        <ele>290.492798</ele>
        <time>2008-09-21T10:32:59Z</time>
      </trkpt>
      <trkpt lat="43.40529" lon="1.07944">
        <ele>290.753998</ele>
        <time>2008-09-21T10:33:11Z</time>
      </trkpt>
      <trkpt lat="43.40535" lon="1.0796">
        <ele>290.488861</ele>
        <time>2008-09-21T10:33:14Z</time>
      </trkpt>
      <trkpt lat="43.40537" lon="1.0797">
        <ele>290.515686</ele>
        <time>2008-09-21T10:33:16Z</time>
      </trkpt>
      <trkpt lat="43.40534" lon="1.07983">
        <ele>291.074524</ele>
        <time>2008-09-21T10:33:20Z</time>
      </trkpt>
      <trkpt lat="43.40546" lon="1.08047">
        <ele>291.727814</ele>
        <time>2008-09-21T10:33:36Z</time>
      </trkpt>
      <trkpt lat="43.40573" lon="1.08095">
        <ele>289.788116</ele>
        <time>2008-09-21T10:33:45Z</time>
      </trkpt>
      <trkpt lat="43.40699" lon="1.084">
        <ele>285.036957</ele>
        <time>2008-09-21T10:34:39Z</time>
      </trkpt>
      <trkpt lat="43.40694" lon="1.08409">
        <ele>284.583435</ele>
        <time>2008-09-21T10:34:42Z</time>
      </trkpt>
      <trkpt lat="43.40625" lon="1.08556">
        <ele>281.170013</ele>
        <time>2008-09-21T10:34:51Z</time>
      </trkpt>
      <trkpt lat="43.40587" lon="1.08607">
        <ele>284.179932</ele>
        <time>2008-09-21T10:35:01Z</time>
      </trkpt>
      <trkpt lat="43.40579" lon="1.08683">
        <ele>288.105835</ele>
        <time>2008-09-21T10:35:19Z</time>
      </trkpt>
      <trkpt lat="43.40579" lon="1.08687">
        <ele>288.342773</ele>
        <time>2008-09-21T10:35:20Z</time>
      </trkpt>
      <trkpt lat="43.40584" lon="1.08703">
        <ele>288.182251</ele>
        <time>2008-09-21T10:35:25Z</time>
      </trkpt>
      <trkpt lat="43.40594" lon="1.08774">
        <ele>289.255005</ele>
        <time>2008-09-21T10:35:39Z</time>
      </trkpt>
      <trkpt lat="43.40605" lon="1.0894">
        <ele>290.055023</ele>
        <time>2008-09-21T10:36:18Z</time>
      </trkpt>
      <trkpt lat="43.40614" lon="1.08969">
        <ele>287.930481</ele>
        <time>2008-09-21T10:36:22Z</time>
      </trkpt>
      <trkpt lat="43.40621" lon="1.08992">
        <ele>286.469391</ele>
        <time>2008-09-21T10:36:25Z</time>
      </trkpt>
      <trkpt lat="43.40626" lon="1.09014">
        <ele>285.248108</ele>
        <time>2008-09-21T10:36:28Z</time>
      </trkpt>
      <trkpt lat="43.40631" lon="1.09064">
        <ele>284.108704</ele>
        <time>2008-09-21T10:36:36Z</time>
      </trkpt>
      <trkpt lat="43.40624" lon="1.09077">
        <ele>285.689392</ele>
        <time>2008-09-21T10:36:39Z</time>
      </trkpt>
      <trkpt lat="43.40625" lon="1.09122">
        <ele>285.815002</ele>
        <time>2008-09-21T10:36:45Z</time>
      </trkpt>
      <trkpt lat="43.40674" lon="1.09197">
        <ele>277.67749</ele>
        <time>2008-09-21T10:37:01Z</time>
      </trkpt>
      <trkpt lat="43.40685" lon="1.09237">
        <ele>275.974701</ele>
        <time>2008-09-21T10:37:11Z</time>
      </trkpt>
      <trkpt lat="43.40663" lon="1.09252">
        <ele>278.816925</ele>
        <time>2008-09-21T10:37:19Z</time>
      </trkpt>
      <trkpt lat="43.40657" lon="1.09273">
        <ele>279.883667</ele>
        <time>2008-09-21T10:37:28Z</time>
      </trkpt>
      <trkpt lat="43.4066" lon="1.09283">
        <ele>279.476471</ele>
        <time>2008-09-21T10:37:31Z</time>
      </trkpt>
      <trkpt lat="43.4066" lon="1.09297">
        <ele>279.915009</ele>
        <time>2008-09-21T10:37:34Z</time>
      </trkpt>
      <trkpt lat="43.40613" lon="1.09508">
        <ele>291.103058</ele>
        <time>2008-09-21T10:38:21Z</time>
      </trkpt>
      <trkpt lat="43.40583" lon="1.09578">
        <ele>294.801422</ele>
        <time>2008-09-21T10:39:01Z</time>
      </trkpt>
      <trkpt lat="43.40586" lon="1.09623">
        <ele>294.575012</ele>
        <time>2008-09-21T10:39:25Z</time>
      </trkpt>
      <trkpt lat="43.40572" lon="1.09646">
        <ele>295.557495</ele>
        <time>2008-09-21T10:39:35Z</time>
      </trkpt>
      <trkpt lat="43.40583" lon="1.09678">
        <ele>294.792511</ele>
        <time>2008-09-21T10:39:52Z</time>
      </trkpt>
      <trkpt lat="43.40586" lon="1.09681">
        <ele>294.582489</ele>
        <time>2008-09-21T10:39:57Z</time>
      </trkpt>
    </trkseg>
  </trk>
</gpx>